<?xml version="1.0" encoding="utf-8"?>
<gpx xmlns:xsi="http://www.w3.org/2001/XMLSchema-instance" xmlns:xsd="http://www.w3.org/2001/XMLSchema" version="1.1" creator="Shapelink.com" xmlns="http://www.topografix.com/GPX/1/1" xmlns:gpxtpx="http://www.garmin.com/xmlschemas/TrackPointExtension/v1">
  <metadata>
    <name>Cycling 5/28/20 6:44 pm 8.52 km, 2020-05-28</name>
    <desc></desc>
    <author><name>Marian Moron</name></author> 
    <time>2020-05-28T18:44:34Z</time>
  </metadata>
  <trk>
    <name>Cycling 5/28/20 6:44 pm 8.52 km, 2020-05-28</name>
    <trkseg>
      <trkpt lat="51.228525" lon="4.449105">
        <ele>3.3</ele>
        <time>2020-05-28T18:44:34Z</time>
      </trkpt>
      <trkpt lat="51.228516" lon="4.448962">
        <ele>3.4</ele>
        <time>2020-05-28T18:44:39Z</time>
      </trkpt>
      <trkpt lat="51.228575" lon="4.448854">
        <ele>3.4</ele>
        <time>2020-05-28T18:44:43Z</time>
      </trkpt>
      <trkpt lat="51.228627" lon="4.448753">
        <ele>3.5</ele>
        <time>2020-05-28T18:44:48Z</time>
      </trkpt>
      <trkpt lat="51.228716" lon="4.448737">
        <ele>3.5</ele>
        <time>2020-05-28T18:44:54Z</time>
      </trkpt>
      <trkpt lat="51.228733" lon="4.448866">
        <ele>3.5</ele>
        <time>2020-05-28T18:45:04Z</time>
      </trkpt>
      <trkpt lat="51.228768" lon="4.448727">
        <ele>3.5</ele>
        <time>2020-05-28T18:45:10Z</time>
      </trkpt>
      <trkpt lat="51.228852" lon="4.448651">
        <ele>3.4</ele>
        <time>2020-05-28T18:45:14Z</time>
      </trkpt>
      <trkpt lat="51.22891" lon="4.448546">
        <ele>3.3</ele>
        <time>2020-05-28T18:45:19Z</time>
      </trkpt>
      <trkpt lat="51.228922" lon="4.448417">
        <ele>3.2</ele>
        <time>2020-05-28T18:45:23Z</time>
      </trkpt>
      <trkpt lat="51.228853" lon="4.448309">
        <ele>3</ele>
        <time>2020-05-28T18:45:27Z</time>
      </trkpt>
      <trkpt lat="51.228783" lon="4.448188">
        <ele>2.9</ele>
        <time>2020-05-28T18:45:32Z</time>
      </trkpt>
      <trkpt lat="51.228722" lon="4.448069">
        <ele>2.8</ele>
        <time>2020-05-28T18:45:36Z</time>
      </trkpt>
      <trkpt lat="51.228664" lon="4.447938">
        <ele>2.7</ele>
        <time>2020-05-28T18:45:39Z</time>
      </trkpt>
      <trkpt lat="51.228626" lon="4.447796">
        <ele>2.6</ele>
        <time>2020-05-28T18:45:42Z</time>
      </trkpt>
      <trkpt lat="51.228556" lon="4.447666">
        <ele>2.6</ele>
        <time>2020-05-28T18:45:45Z</time>
      </trkpt>
      <trkpt lat="51.228478" lon="4.44754">
        <ele>2.7</ele>
        <time>2020-05-28T18:45:48Z</time>
      </trkpt>
      <trkpt lat="51.228404" lon="4.447422">
        <ele>2.9</ele>
        <time>2020-05-28T18:45:51Z</time>
      </trkpt>
      <trkpt lat="51.228336" lon="4.447307">
        <ele>3.2</ele>
        <time>2020-05-28T18:45:54Z</time>
      </trkpt>
      <trkpt lat="51.228268" lon="4.447192">
        <ele>3.5</ele>
        <time>2020-05-28T18:45:57Z</time>
      </trkpt>
      <trkpt lat="51.22824" lon="4.447067">
        <ele>3.9</ele>
        <time>2020-05-28T18:46:00Z</time>
      </trkpt>
      <trkpt lat="51.228333" lon="4.446961">
        <ele>4.3</ele>
        <time>2020-05-28T18:46:04Z</time>
      </trkpt>
      <trkpt lat="51.228411" lon="4.446846">
        <ele>4.5</ele>
        <time>2020-05-28T18:46:07Z</time>
      </trkpt>
      <trkpt lat="51.228494" lon="4.446725">
        <ele>4.7</ele>
        <time>2020-05-28T18:46:10Z</time>
      </trkpt>
      <trkpt lat="51.228582" lon="4.446605">
        <ele>4.9</ele>
        <time>2020-05-28T18:46:13Z</time>
      </trkpt>
      <trkpt lat="51.228661" lon="4.446494">
        <ele>5</ele>
        <time>2020-05-28T18:46:16Z</time>
      </trkpt>
      <trkpt lat="51.228732" lon="4.446369">
        <ele>5.1</ele>
        <time>2020-05-28T18:46:19Z</time>
      </trkpt>
      <trkpt lat="51.2288" lon="4.446241">
        <ele>5.1</ele>
        <time>2020-05-28T18:46:22Z</time>
      </trkpt>
      <trkpt lat="51.228885" lon="4.446141">
        <ele>5</ele>
        <time>2020-05-28T18:46:25Z</time>
      </trkpt>
      <trkpt lat="51.228964" lon="4.446026">
        <ele>4.9</ele>
        <time>2020-05-28T18:46:28Z</time>
      </trkpt>
      <trkpt lat="51.22905" lon="4.4459">
        <ele>4.6</ele>
        <time>2020-05-28T18:46:31Z</time>
      </trkpt>
      <trkpt lat="51.229112" lon="4.445812">
        <ele>4.4</ele>
        <time>2020-05-28T18:46:33Z</time>
      </trkpt>
      <trkpt lat="51.229174" lon="4.445717">
        <ele>4.2</ele>
        <time>2020-05-28T18:46:35Z</time>
      </trkpt>
      <trkpt lat="51.229252" lon="4.445582">
        <ele>4</ele>
        <time>2020-05-28T18:46:38Z</time>
      </trkpt>
      <trkpt lat="51.229319" lon="4.445445">
        <ele>3.9</ele>
        <time>2020-05-28T18:46:41Z</time>
      </trkpt>
      <trkpt lat="51.229378" lon="4.445349">
        <ele>3.7</ele>
        <time>2020-05-28T18:46:45Z</time>
      </trkpt>
      <trkpt lat="51.229374" lon="4.445354">
        <ele>3.7</ele>
        <time>2020-05-28T18:46:48Z</time>
      </trkpt>
      <trkpt lat="51.229435" lon="4.445369">
        <ele>2.6</ele>
        <time>2020-05-28T18:48:55Z</time>
      </trkpt>
      <trkpt lat="51.229466" lon="4.445324">
        <ele>2.6</ele>
        <time>2020-05-28T18:49:00Z</time>
      </trkpt>
      <trkpt lat="51.229533" lon="4.445224">
        <ele>2.6</ele>
        <time>2020-05-28T18:49:04Z</time>
      </trkpt>
      <trkpt lat="51.229609" lon="4.445113">
        <ele>2.6</ele>
        <time>2020-05-28T18:49:08Z</time>
      </trkpt>
      <trkpt lat="51.22963" lon="4.445112">
        <ele>2.6</ele>
        <time>2020-05-28T18:49:11Z</time>
      </trkpt>
      <trkpt lat="51.229653" lon="4.445158">
        <ele>2.3</ele>
        <time>2020-05-28T18:51:31Z</time>
      </trkpt>
      <trkpt lat="51.229691" lon="4.445129">
        <ele>2.4</ele>
        <time>2020-05-28T18:51:39Z</time>
      </trkpt>
      <trkpt lat="51.229764" lon="4.44502">
        <ele>2.6</ele>
        <time>2020-05-28T18:51:44Z</time>
      </trkpt>
      <trkpt lat="51.229844" lon="4.445064">
        <ele>2.8</ele>
        <time>2020-05-28T18:51:48Z</time>
      </trkpt>
      <trkpt lat="51.229875" lon="4.445208">
        <ele>2.9</ele>
        <time>2020-05-28T18:51:52Z</time>
      </trkpt>
      <trkpt lat="51.229905" lon="4.445357">
        <ele>3</ele>
        <time>2020-05-28T18:51:56Z</time>
      </trkpt>
      <trkpt lat="51.229935" lon="4.445479">
        <ele>3.3</ele>
        <time>2020-05-28T18:51:59Z</time>
      </trkpt>
      <trkpt lat="51.229973" lon="4.44561">
        <ele>3.5</ele>
        <time>2020-05-28T18:52:02Z</time>
      </trkpt>
      <trkpt lat="51.230014" lon="4.445752">
        <ele>3.6</ele>
        <time>2020-05-28T18:52:05Z</time>
      </trkpt>
      <trkpt lat="51.23005" lon="4.445884">
        <ele>3.8</ele>
        <time>2020-05-28T18:52:08Z</time>
      </trkpt>
      <trkpt lat="51.230091" lon="4.446017">
        <ele>3.8</ele>
        <time>2020-05-28T18:52:11Z</time>
      </trkpt>
      <trkpt lat="51.230126" lon="4.446164">
        <ele>3.9</ele>
        <time>2020-05-28T18:52:14Z</time>
      </trkpt>
      <trkpt lat="51.230169" lon="4.446302">
        <ele>4</ele>
        <time>2020-05-28T18:52:17Z</time>
      </trkpt>
      <trkpt lat="51.2302" lon="4.446426">
        <ele>4</ele>
        <time>2020-05-28T18:52:20Z</time>
      </trkpt>
      <trkpt lat="51.23023" lon="4.44659">
        <ele>4</ele>
        <time>2020-05-28T18:52:24Z</time>
      </trkpt>
      <trkpt lat="51.230236" lon="4.446631">
        <ele>4</ele>
        <time>2020-05-28T18:52:28Z</time>
      </trkpt>
      <trkpt lat="51.230263" lon="4.446693">
        <ele>3</ele>
        <time>2020-05-28T18:52:57Z</time>
      </trkpt>
      <trkpt lat="51.230304" lon="4.446861">
        <ele>2.8</ele>
        <time>2020-05-28T18:53:01Z</time>
      </trkpt>
      <trkpt lat="51.230347" lon="4.447007">
        <ele>2.6</ele>
        <time>2020-05-28T18:53:05Z</time>
      </trkpt>
      <trkpt lat="51.230371" lon="4.447134">
        <ele>2.4</ele>
        <time>2020-05-28T18:53:08Z</time>
      </trkpt>
      <trkpt lat="51.230416" lon="4.447261">
        <ele>2.3</ele>
        <time>2020-05-28T18:53:11Z</time>
      </trkpt>
      <trkpt lat="51.230457" lon="4.4474">
        <ele>2.2</ele>
        <time>2020-05-28T18:53:14Z</time>
      </trkpt>
      <trkpt lat="51.230498" lon="4.447533">
        <ele>2.1</ele>
        <time>2020-05-28T18:53:17Z</time>
      </trkpt>
      <trkpt lat="51.230541" lon="4.447672">
        <ele>2.1</ele>
        <time>2020-05-28T18:53:20Z</time>
      </trkpt>
      <trkpt lat="51.230588" lon="4.447811">
        <ele>2.1</ele>
        <time>2020-05-28T18:53:23Z</time>
      </trkpt>
      <trkpt lat="51.230625" lon="4.447944">
        <ele>2</ele>
        <time>2020-05-28T18:53:26Z</time>
      </trkpt>
      <trkpt lat="51.230659" lon="4.448073">
        <ele>1.9</ele>
        <time>2020-05-28T18:53:29Z</time>
      </trkpt>
      <trkpt lat="51.230692" lon="4.448194">
        <ele>1.8</ele>
        <time>2020-05-28T18:53:32Z</time>
      </trkpt>
      <trkpt lat="51.230731" lon="4.448327">
        <ele>1.7</ele>
        <time>2020-05-28T18:53:35Z</time>
      </trkpt>
      <trkpt lat="51.230758" lon="4.448469">
        <ele>1.7</ele>
        <time>2020-05-28T18:53:38Z</time>
      </trkpt>
      <trkpt lat="51.230781" lon="4.448609">
        <ele>1.8</ele>
        <time>2020-05-28T18:53:41Z</time>
      </trkpt>
      <trkpt lat="51.230819" lon="4.448754">
        <ele>2</ele>
        <time>2020-05-28T18:53:44Z</time>
      </trkpt>
      <trkpt lat="51.230852" lon="4.448901">
        <ele>2.2</ele>
        <time>2020-05-28T18:53:47Z</time>
      </trkpt>
      <trkpt lat="51.23088" lon="4.449041">
        <ele>2.5</ele>
        <time>2020-05-28T18:53:50Z</time>
      </trkpt>
      <trkpt lat="51.230913" lon="4.449183">
        <ele>2.7</ele>
        <time>2020-05-28T18:53:53Z</time>
      </trkpt>
      <trkpt lat="51.230952" lon="4.449309">
        <ele>3.1</ele>
        <time>2020-05-28T18:53:56Z</time>
      </trkpt>
      <trkpt lat="51.231002" lon="4.449455">
        <ele>3.5</ele>
        <time>2020-05-28T18:54:00Z</time>
      </trkpt>
      <trkpt lat="51.231037" lon="4.449584">
        <ele>3.9</ele>
        <time>2020-05-28T18:54:03Z</time>
      </trkpt>
      <trkpt lat="51.23107" lon="4.449728">
        <ele>4.4</ele>
        <time>2020-05-28T18:54:06Z</time>
      </trkpt>
      <trkpt lat="51.231102" lon="4.449878">
        <ele>4.7</ele>
        <time>2020-05-28T18:54:09Z</time>
      </trkpt>
      <trkpt lat="51.231124" lon="4.450014">
        <ele>5.1</ele>
        <time>2020-05-28T18:54:12Z</time>
      </trkpt>
      <trkpt lat="51.231151" lon="4.45015">
        <ele>5.4</ele>
        <time>2020-05-28T18:54:15Z</time>
      </trkpt>
      <trkpt lat="51.231173" lon="4.450314">
        <ele>5.5</ele>
        <time>2020-05-28T18:54:19Z</time>
      </trkpt>
      <trkpt lat="51.231197" lon="4.450476">
        <ele>5.6</ele>
        <time>2020-05-28T18:54:23Z</time>
      </trkpt>
      <trkpt lat="51.231216" lon="4.450608">
        <ele>5.6</ele>
        <time>2020-05-28T18:54:26Z</time>
      </trkpt>
      <trkpt lat="51.23124" lon="4.450741">
        <ele>5.5</ele>
        <time>2020-05-28T18:54:29Z</time>
      </trkpt>
      <trkpt lat="51.231267" lon="4.450881">
        <ele>5.3</ele>
        <time>2020-05-28T18:54:32Z</time>
      </trkpt>
      <trkpt lat="51.231288" lon="4.451028">
        <ele>5</ele>
        <time>2020-05-28T18:54:35Z</time>
      </trkpt>
      <trkpt lat="51.231309" lon="4.451167">
        <ele>4.7</ele>
        <time>2020-05-28T18:54:38Z</time>
      </trkpt>
      <trkpt lat="51.231325" lon="4.451308">
        <ele>4.5</ele>
        <time>2020-05-28T18:54:41Z</time>
      </trkpt>
      <trkpt lat="51.231357" lon="4.451454">
        <ele>4.2</ele>
        <time>2020-05-28T18:54:44Z</time>
      </trkpt>
      <trkpt lat="51.231393" lon="4.451611">
        <ele>3.9</ele>
        <time>2020-05-28T18:54:47Z</time>
      </trkpt>
      <trkpt lat="51.231424" lon="4.45177">
        <ele>3.6</ele>
        <time>2020-05-28T18:54:50Z</time>
      </trkpt>
      <trkpt lat="51.231466" lon="4.451931">
        <ele>3.3</ele>
        <time>2020-05-28T18:54:53Z</time>
      </trkpt>
      <trkpt lat="51.231493" lon="4.452065">
        <ele>2.9</ele>
        <time>2020-05-28T18:54:56Z</time>
      </trkpt>
      <trkpt lat="51.231511" lon="4.4522">
        <ele>2.5</ele>
        <time>2020-05-28T18:55:02Z</time>
      </trkpt>
      <trkpt lat="51.231536" lon="4.452348">
        <ele>2.3</ele>
        <time>2020-05-28T18:55:06Z</time>
      </trkpt>
      <trkpt lat="51.231575" lon="4.452497">
        <ele>2.2</ele>
        <time>2020-05-28T18:55:09Z</time>
      </trkpt>
      <trkpt lat="51.231606" lon="4.452644">
        <ele>2.2</ele>
        <time>2020-05-28T18:55:12Z</time>
      </trkpt>
      <trkpt lat="51.231626" lon="4.452793">
        <ele>2.3</ele>
        <time>2020-05-28T18:55:15Z</time>
      </trkpt>
      <trkpt lat="51.231648" lon="4.452927">
        <ele>2.4</ele>
        <time>2020-05-28T18:55:18Z</time>
      </trkpt>
      <trkpt lat="51.23167" lon="4.45306">
        <ele>2.5</ele>
        <time>2020-05-28T18:55:21Z</time>
      </trkpt>
      <trkpt lat="51.231695" lon="4.453203">
        <ele>2.7</ele>
        <time>2020-05-28T18:55:24Z</time>
      </trkpt>
      <trkpt lat="51.231723" lon="4.453347">
        <ele>2.9</ele>
        <time>2020-05-28T18:55:27Z</time>
      </trkpt>
      <trkpt lat="51.231754" lon="4.453497">
        <ele>3.2</ele>
        <time>2020-05-28T18:55:30Z</time>
      </trkpt>
      <trkpt lat="51.231782" lon="4.453626">
        <ele>3.4</ele>
        <time>2020-05-28T18:55:33Z</time>
      </trkpt>
      <trkpt lat="51.231813" lon="4.45379">
        <ele>3.5</ele>
        <time>2020-05-28T18:55:37Z</time>
      </trkpt>
      <trkpt lat="51.231833" lon="4.453959">
        <ele>3.6</ele>
        <time>2020-05-28T18:55:41Z</time>
      </trkpt>
      <trkpt lat="51.231853" lon="4.454089">
        <ele>3.6</ele>
        <time>2020-05-28T18:55:44Z</time>
      </trkpt>
      <trkpt lat="51.231883" lon="4.454228">
        <ele>3.5</ele>
        <time>2020-05-28T18:55:47Z</time>
      </trkpt>
      <trkpt lat="51.231907" lon="4.454373">
        <ele>3.5</ele>
        <time>2020-05-28T18:55:50Z</time>
      </trkpt>
      <trkpt lat="51.231928" lon="4.454517">
        <ele>3.5</ele>
        <time>2020-05-28T18:55:53Z</time>
      </trkpt>
      <trkpt lat="51.231954" lon="4.454656">
        <ele>3.5</ele>
        <time>2020-05-28T18:55:56Z</time>
      </trkpt>
      <trkpt lat="51.231975" lon="4.454791">
        <ele>3.5</ele>
        <time>2020-05-28T18:55:59Z</time>
      </trkpt>
      <trkpt lat="51.23199" lon="4.454926">
        <ele>3.5</ele>
        <time>2020-05-28T18:56:02Z</time>
      </trkpt>
      <trkpt lat="51.232019" lon="4.45509">
        <ele>3.5</ele>
        <time>2020-05-28T18:56:06Z</time>
      </trkpt>
      <trkpt lat="51.23204" lon="4.455223">
        <ele>3.6</ele>
        <time>2020-05-28T18:56:09Z</time>
      </trkpt>
      <trkpt lat="51.232061" lon="4.455358">
        <ele>3.6</ele>
        <time>2020-05-28T18:56:12Z</time>
      </trkpt>
      <trkpt lat="51.23209" lon="4.45549">
        <ele>3.6</ele>
        <time>2020-05-28T18:56:15Z</time>
      </trkpt>
      <trkpt lat="51.23212" lon="4.455648">
        <ele>3.6</ele>
        <time>2020-05-28T18:56:19Z</time>
      </trkpt>
      <trkpt lat="51.232148" lon="4.455815">
        <ele>3.6</ele>
        <time>2020-05-28T18:56:23Z</time>
      </trkpt>
      <trkpt lat="51.232168" lon="4.455949">
        <ele>3.5</ele>
        <time>2020-05-28T18:56:26Z</time>
      </trkpt>
      <trkpt lat="51.2322" lon="4.456112">
        <ele>3.3</ele>
        <time>2020-05-28T18:56:30Z</time>
      </trkpt>
      <trkpt lat="51.232219" lon="4.456245">
        <ele>3.1</ele>
        <time>2020-05-28T18:56:33Z</time>
      </trkpt>
      <trkpt lat="51.23224" lon="4.456397">
        <ele>2.8</ele>
        <time>2020-05-28T18:56:37Z</time>
      </trkpt>
      <trkpt lat="51.232265" lon="4.45652">
        <ele>2.7</ele>
        <time>2020-05-28T18:56:40Z</time>
      </trkpt>
      <trkpt lat="51.232287" lon="4.456657">
        <ele>2.6</ele>
        <time>2020-05-28T18:56:43Z</time>
      </trkpt>
      <trkpt lat="51.232319" lon="4.456805">
        <ele>2.4</ele>
        <time>2020-05-28T18:56:47Z</time>
      </trkpt>
      <trkpt lat="51.232349" lon="4.456932">
        <ele>2.3</ele>
        <time>2020-05-28T18:56:51Z</time>
      </trkpt>
      <trkpt lat="51.232358" lon="4.457004">
        <ele>2.2</ele>
        <time>2020-05-28T18:56:56Z</time>
      </trkpt>
      <trkpt lat="51.23236" lon="4.457018">
        <ele>0.7</ele>
        <time>2020-05-28T18:57:32Z</time>
      </trkpt>
      <trkpt lat="51.232358" lon="4.457064">
        <ele>0.6</ele>
        <time>2020-05-28T18:57:36Z</time>
      </trkpt>
      <trkpt lat="51.232368" lon="4.4572">
        <ele>0.5</ele>
        <time>2020-05-28T18:57:40Z</time>
      </trkpt>
      <trkpt lat="51.232392" lon="4.457359">
        <ele>0.6</ele>
        <time>2020-05-28T18:57:44Z</time>
      </trkpt>
      <trkpt lat="51.232433" lon="4.457472">
        <ele>0.7</ele>
        <time>2020-05-28T18:57:47Z</time>
      </trkpt>
      <trkpt lat="51.232464" lon="4.457619">
        <ele>0.8</ele>
        <time>2020-05-28T18:57:51Z</time>
      </trkpt>
      <trkpt lat="51.232493" lon="4.457744">
        <ele>1</ele>
        <time>2020-05-28T18:57:54Z</time>
      </trkpt>
      <trkpt lat="51.232506" lon="4.457902">
        <ele>1.2</ele>
        <time>2020-05-28T18:57:58Z</time>
      </trkpt>
      <trkpt lat="51.232514" lon="4.458042">
        <ele>1.4</ele>
        <time>2020-05-28T18:58:01Z</time>
      </trkpt>
      <trkpt lat="51.232539" lon="4.458175">
        <ele>1.6</ele>
        <time>2020-05-28T18:58:04Z</time>
      </trkpt>
      <trkpt lat="51.23256" lon="4.458303">
        <ele>2</ele>
        <time>2020-05-28T18:58:07Z</time>
      </trkpt>
      <trkpt lat="51.232582" lon="4.458441">
        <ele>2.3</ele>
        <time>2020-05-28T18:58:10Z</time>
      </trkpt>
      <trkpt lat="51.232609" lon="4.458574">
        <ele>2.5</ele>
        <time>2020-05-28T18:58:13Z</time>
      </trkpt>
      <trkpt lat="51.232637" lon="4.458714">
        <ele>2.7</ele>
        <time>2020-05-28T18:58:16Z</time>
      </trkpt>
      <trkpt lat="51.232661" lon="4.458855">
        <ele>2.8</ele>
        <time>2020-05-28T18:58:19Z</time>
      </trkpt>
      <trkpt lat="51.232688" lon="4.458995">
        <ele>2.8</ele>
        <time>2020-05-28T18:58:22Z</time>
      </trkpt>
      <trkpt lat="51.232724" lon="4.459156">
        <ele>2.8</ele>
        <time>2020-05-28T18:58:26Z</time>
      </trkpt>
      <trkpt lat="51.232761" lon="4.459283">
        <ele>2.7</ele>
        <time>2020-05-28T18:58:29Z</time>
      </trkpt>
      <trkpt lat="51.232784" lon="4.459415">
        <ele>2.7</ele>
        <time>2020-05-28T18:58:32Z</time>
      </trkpt>
      <trkpt lat="51.232808" lon="4.459555">
        <ele>2.7</ele>
        <time>2020-05-28T18:58:36Z</time>
      </trkpt>
      <trkpt lat="51.232828" lon="4.45969">
        <ele>2.6</ele>
        <time>2020-05-28T18:58:41Z</time>
      </trkpt>
      <trkpt lat="51.232859" lon="4.459855">
        <ele>2.5</ele>
        <time>2020-05-28T18:58:45Z</time>
      </trkpt>
      <trkpt lat="51.232879" lon="4.459985">
        <ele>2.6</ele>
        <time>2020-05-28T18:58:48Z</time>
      </trkpt>
      <trkpt lat="51.232908" lon="4.460119">
        <ele>2.7</ele>
        <time>2020-05-28T18:58:51Z</time>
      </trkpt>
      <trkpt lat="51.232929" lon="4.460255">
        <ele>2.9</ele>
        <time>2020-05-28T18:58:54Z</time>
      </trkpt>
      <trkpt lat="51.232953" lon="4.460385">
        <ele>3.2</ele>
        <time>2020-05-28T18:58:57Z</time>
      </trkpt>
      <trkpt lat="51.232973" lon="4.460517">
        <ele>3.4</ele>
        <time>2020-05-28T18:59:00Z</time>
      </trkpt>
      <trkpt lat="51.232997" lon="4.460656">
        <ele>3.5</ele>
        <time>2020-05-28T18:59:03Z</time>
      </trkpt>
      <trkpt lat="51.233013" lon="4.460811">
        <ele>3.5</ele>
        <time>2020-05-28T18:59:06Z</time>
      </trkpt>
      <trkpt lat="51.233033" lon="4.460967">
        <ele>3.3</ele>
        <time>2020-05-28T18:59:09Z</time>
      </trkpt>
      <trkpt lat="51.233057" lon="4.461116">
        <ele>3.1</ele>
        <time>2020-05-28T18:59:12Z</time>
      </trkpt>
      <trkpt lat="51.233079" lon="4.461265">
        <ele>2.9</ele>
        <time>2020-05-28T18:59:15Z</time>
      </trkpt>
      <trkpt lat="51.233115" lon="4.461411">
        <ele>2.7</ele>
        <time>2020-05-28T18:59:18Z</time>
      </trkpt>
      <trkpt lat="51.233135" lon="4.461536">
        <ele>2.5</ele>
        <time>2020-05-28T18:59:21Z</time>
      </trkpt>
      <trkpt lat="51.233154" lon="4.461692">
        <ele>2.2</ele>
        <time>2020-05-28T18:59:25Z</time>
      </trkpt>
      <trkpt lat="51.233185" lon="4.461846">
        <ele>2</ele>
        <time>2020-05-28T18:59:29Z</time>
      </trkpt>
      <trkpt lat="51.233204" lon="4.461993">
        <ele>1.7</ele>
        <time>2020-05-28T18:59:33Z</time>
      </trkpt>
      <trkpt lat="51.233229" lon="4.46212">
        <ele>1.5</ele>
        <time>2020-05-28T18:59:36Z</time>
      </trkpt>
      <trkpt lat="51.233253" lon="4.462286">
        <ele>1.5</ele>
        <time>2020-05-28T18:59:39Z</time>
      </trkpt>
      <trkpt lat="51.233283" lon="4.462472">
        <ele>1.5</ele>
        <time>2020-05-28T18:59:42Z</time>
      </trkpt>
      <trkpt lat="51.233311" lon="4.462661">
        <ele>1.5</ele>
        <time>2020-05-28T18:59:45Z</time>
      </trkpt>
      <trkpt lat="51.233336" lon="4.462841">
        <ele>1.6</ele>
        <time>2020-05-28T18:59:48Z</time>
      </trkpt>
      <trkpt lat="51.233359" lon="4.46301">
        <ele>1.8</ele>
        <time>2020-05-28T18:59:51Z</time>
      </trkpt>
      <trkpt lat="51.233381" lon="4.463166">
        <ele>2</ele>
        <time>2020-05-28T18:59:54Z</time>
      </trkpt>
      <trkpt lat="51.233394" lon="4.463305">
        <ele>2.2</ele>
        <time>2020-05-28T18:59:57Z</time>
      </trkpt>
      <trkpt lat="51.233421" lon="4.463469">
        <ele>2.4</ele>
        <time>2020-05-28T19:00:01Z</time>
      </trkpt>
      <trkpt lat="51.233438" lon="4.463625">
        <ele>2.5</ele>
        <time>2020-05-28T19:00:05Z</time>
      </trkpt>
      <trkpt lat="51.233444" lon="4.463779">
        <ele>2.7</ele>
        <time>2020-05-28T19:00:09Z</time>
      </trkpt>
      <trkpt lat="51.233432" lon="4.46394">
        <ele>2.9</ele>
        <time>2020-05-28T19:00:13Z</time>
      </trkpt>
      <trkpt lat="51.233384" lon="4.464097">
        <ele>3.1</ele>
        <time>2020-05-28T19:00:17Z</time>
      </trkpt>
      <trkpt lat="51.233331" lon="4.464212">
        <ele>3.3</ele>
        <time>2020-05-28T19:00:20Z</time>
      </trkpt>
      <trkpt lat="51.233279" lon="4.464331">
        <ele>3.4</ele>
        <time>2020-05-28T19:00:23Z</time>
      </trkpt>
      <trkpt lat="51.233219" lon="4.464442">
        <ele>3.5</ele>
        <time>2020-05-28T19:00:26Z</time>
      </trkpt>
      <trkpt lat="51.233156" lon="4.464553">
        <ele>3.5</ele>
        <time>2020-05-28T19:00:29Z</time>
      </trkpt>
      <trkpt lat="51.2331" lon="4.464673">
        <ele>3.6</ele>
        <time>2020-05-28T19:00:32Z</time>
      </trkpt>
      <trkpt lat="51.233047" lon="4.464791">
        <ele>3.6</ele>
        <time>2020-05-28T19:00:35Z</time>
      </trkpt>
      <trkpt lat="51.23299" lon="4.464918">
        <ele>3.6</ele>
        <time>2020-05-28T19:00:38Z</time>
      </trkpt>
      <trkpt lat="51.232934" lon="4.465047">
        <ele>3.5</ele>
        <time>2020-05-28T19:00:41Z</time>
      </trkpt>
      <trkpt lat="51.232882" lon="4.465173">
        <ele>3.5</ele>
        <time>2020-05-28T19:00:44Z</time>
      </trkpt>
      <trkpt lat="51.232829" lon="4.465294">
        <ele>3.5</ele>
        <time>2020-05-28T19:00:47Z</time>
      </trkpt>
      <trkpt lat="51.232778" lon="4.465417">
        <ele>3.6</ele>
        <time>2020-05-28T19:00:50Z</time>
      </trkpt>
      <trkpt lat="51.232726" lon="4.465534">
        <ele>3.7</ele>
        <time>2020-05-28T19:00:53Z</time>
      </trkpt>
      <trkpt lat="51.232679" lon="4.46564">
        <ele>3.9</ele>
        <time>2020-05-28T19:00:56Z</time>
      </trkpt>
      <trkpt lat="51.232619" lon="4.465785">
        <ele>4.1</ele>
        <time>2020-05-28T19:01:00Z</time>
      </trkpt>
      <trkpt lat="51.232566" lon="4.465902">
        <ele>4.2</ele>
        <time>2020-05-28T19:01:03Z</time>
      </trkpt>
      <trkpt lat="51.232507" lon="4.466023">
        <ele>4.3</ele>
        <time>2020-05-28T19:01:06Z</time>
      </trkpt>
      <trkpt lat="51.232445" lon="4.466149">
        <ele>4.5</ele>
        <time>2020-05-28T19:01:09Z</time>
      </trkpt>
      <trkpt lat="51.232392" lon="4.466256">
        <ele>4.6</ele>
        <time>2020-05-28T19:01:12Z</time>
      </trkpt>
      <trkpt lat="51.232335" lon="4.466369">
        <ele>4.8</ele>
        <time>2020-05-28T19:01:15Z</time>
      </trkpt>
      <trkpt lat="51.232285" lon="4.466474">
        <ele>4.8</ele>
        <time>2020-05-28T19:01:18Z</time>
      </trkpt>
      <trkpt lat="51.232233" lon="4.46659">
        <ele>4.8</ele>
        <time>2020-05-28T19:01:21Z</time>
      </trkpt>
      <trkpt lat="51.232181" lon="4.466715">
        <ele>4.7</ele>
        <time>2020-05-28T19:01:24Z</time>
      </trkpt>
      <trkpt lat="51.232138" lon="4.466833">
        <ele>4.6</ele>
        <time>2020-05-28T19:01:27Z</time>
      </trkpt>
      <trkpt lat="51.232103" lon="4.466966">
        <ele>4.5</ele>
        <time>2020-05-28T19:01:30Z</time>
      </trkpt>
      <trkpt lat="51.23206" lon="4.46709">
        <ele>4.5</ele>
        <time>2020-05-28T19:01:33Z</time>
      </trkpt>
      <trkpt lat="51.231993" lon="4.467175">
        <ele>4.3</ele>
        <time>2020-05-28T19:01:36Z</time>
      </trkpt>
      <trkpt lat="51.231895" lon="4.467229">
        <ele>4.1</ele>
        <time>2020-05-28T19:01:39Z</time>
      </trkpt>
      <trkpt lat="51.231793" lon="4.467281">
        <ele>3.9</ele>
        <time>2020-05-28T19:01:42Z</time>
      </trkpt>
      <trkpt lat="51.231688" lon="4.467277">
        <ele>3.7</ele>
        <time>2020-05-28T19:01:45Z</time>
      </trkpt>
      <trkpt lat="51.23159" lon="4.467231">
        <ele>3.5</ele>
        <time>2020-05-28T19:01:48Z</time>
      </trkpt>
      <trkpt lat="51.231497" lon="4.467192">
        <ele>3.5</ele>
        <time>2020-05-28T19:01:51Z</time>
      </trkpt>
      <trkpt lat="51.231403" lon="4.467163">
        <ele>3.3</ele>
        <time>2020-05-28T19:01:54Z</time>
      </trkpt>
      <trkpt lat="51.231307" lon="4.467163">
        <ele>3.1</ele>
        <time>2020-05-28T19:01:57Z</time>
      </trkpt>
      <trkpt lat="51.231206" lon="4.467192">
        <ele>2.9</ele>
        <time>2020-05-28T19:02:00Z</time>
      </trkpt>
      <trkpt lat="51.231093" lon="4.467213">
        <ele>2.7</ele>
        <time>2020-05-28T19:02:03Z</time>
      </trkpt>
      <trkpt lat="51.230993" lon="4.467229">
        <ele>2.5</ele>
        <time>2020-05-28T19:02:06Z</time>
      </trkpt>
      <trkpt lat="51.230891" lon="4.467246">
        <ele>2.5</ele>
        <time>2020-05-28T19:02:09Z</time>
      </trkpt>
      <trkpt lat="51.230798" lon="4.467289">
        <ele>2.5</ele>
        <time>2020-05-28T19:02:12Z</time>
      </trkpt>
      <trkpt lat="51.230711" lon="4.467304">
        <ele>2.5</ele>
        <time>2020-05-28T19:02:15Z</time>
      </trkpt>
      <trkpt lat="51.230604" lon="4.467349">
        <ele>2.3</ele>
        <time>2020-05-28T19:02:19Z</time>
      </trkpt>
      <trkpt lat="51.230508" lon="4.467385">
        <ele>2.1</ele>
        <time>2020-05-28T19:02:22Z</time>
      </trkpt>
      <trkpt lat="51.230401" lon="4.467419">
        <ele>1.9</ele>
        <time>2020-05-28T19:02:25Z</time>
      </trkpt>
      <trkpt lat="51.230293" lon="4.467457">
        <ele>1.8</ele>
        <time>2020-05-28T19:02:28Z</time>
      </trkpt>
      <trkpt lat="51.230187" lon="4.467442">
        <ele>1.7</ele>
        <time>2020-05-28T19:02:31Z</time>
      </trkpt>
      <trkpt lat="51.230074" lon="4.467468">
        <ele>1.6</ele>
        <time>2020-05-28T19:02:34Z</time>
      </trkpt>
      <trkpt lat="51.229967" lon="4.467519">
        <ele>1.5</ele>
        <time>2020-05-28T19:02:37Z</time>
      </trkpt>
      <trkpt lat="51.229856" lon="4.467553">
        <ele>1.5</ele>
        <time>2020-05-28T19:02:40Z</time>
      </trkpt>
      <trkpt lat="51.22974" lon="4.467604">
        <ele>1.5</ele>
        <time>2020-05-28T19:02:43Z</time>
      </trkpt>
      <trkpt lat="51.22966" lon="4.46763">
        <ele>1.6</ele>
        <time>2020-05-28T19:02:45Z</time>
      </trkpt>
      <trkpt lat="51.229549" lon="4.467662">
        <ele>1.9</ele>
        <time>2020-05-28T19:02:48Z</time>
      </trkpt>
      <trkpt lat="51.229443" lon="4.467654">
        <ele>2.3</ele>
        <time>2020-05-28T19:02:51Z</time>
      </trkpt>
      <trkpt lat="51.229339" lon="4.467626">
        <ele>2.7</ele>
        <time>2020-05-28T19:02:54Z</time>
      </trkpt>
      <trkpt lat="51.229226" lon="4.467592">
        <ele>3.2</ele>
        <time>2020-05-28T19:02:57Z</time>
      </trkpt>
      <trkpt lat="51.229115" lon="4.467548">
        <ele>3.7</ele>
        <time>2020-05-28T19:03:00Z</time>
      </trkpt>
      <trkpt lat="51.229002" lon="4.467503">
        <ele>4.3</ele>
        <time>2020-05-28T19:03:03Z</time>
      </trkpt>
      <trkpt lat="51.228897" lon="4.467451">
        <ele>4.8</ele>
        <time>2020-05-28T19:03:06Z</time>
      </trkpt>
      <trkpt lat="51.228791" lon="4.467424">
        <ele>5.4</ele>
        <time>2020-05-28T19:03:09Z</time>
      </trkpt>
      <trkpt lat="51.228683" lon="4.467375">
        <ele>5.8</ele>
        <time>2020-05-28T19:03:12Z</time>
      </trkpt>
      <trkpt lat="51.228575" lon="4.46732">
        <ele>6.2</ele>
        <time>2020-05-28T19:03:15Z</time>
      </trkpt>
      <trkpt lat="51.228475" lon="4.467252">
        <ele>6.5</ele>
        <time>2020-05-28T19:03:18Z</time>
      </trkpt>
      <trkpt lat="51.228389" lon="4.467177">
        <ele>6.5</ele>
        <time>2020-05-28T19:03:21Z</time>
      </trkpt>
      <trkpt lat="51.2283" lon="4.467114">
        <ele>6.6</ele>
        <time>2020-05-28T19:03:24Z</time>
      </trkpt>
      <trkpt lat="51.228207" lon="4.46704">
        <ele>6.6</ele>
        <time>2020-05-28T19:03:27Z</time>
      </trkpt>
      <trkpt lat="51.228109" lon="4.466977">
        <ele>6.5</ele>
        <time>2020-05-28T19:03:30Z</time>
      </trkpt>
      <trkpt lat="51.228017" lon="4.4669">
        <ele>6.3</ele>
        <time>2020-05-28T19:03:33Z</time>
      </trkpt>
      <trkpt lat="51.227937" lon="4.466821">
        <ele>6</ele>
        <time>2020-05-28T19:03:36Z</time>
      </trkpt>
      <trkpt lat="51.227863" lon="4.466741">
        <ele>5.8</ele>
        <time>2020-05-28T19:03:39Z</time>
      </trkpt>
      <trkpt lat="51.227785" lon="4.466654">
        <ele>5.6</ele>
        <time>2020-05-28T19:03:42Z</time>
      </trkpt>
      <trkpt lat="51.227711" lon="4.466577">
        <ele>5.5</ele>
        <time>2020-05-28T19:03:45Z</time>
      </trkpt>
      <trkpt lat="51.227618" lon="4.466567">
        <ele>5.3</ele>
        <time>2020-05-28T19:03:49Z</time>
      </trkpt>
      <trkpt lat="51.227607" lon="4.466701">
        <ele>5.2</ele>
        <time>2020-05-28T19:03:52Z</time>
      </trkpt>
      <trkpt lat="51.227661" lon="4.466822">
        <ele>5.2</ele>
        <time>2020-05-28T19:03:55Z</time>
      </trkpt>
      <trkpt lat="51.227708" lon="4.46694">
        <ele>5.2</ele>
        <time>2020-05-28T19:03:58Z</time>
      </trkpt>
      <trkpt lat="51.227758" lon="4.46706">
        <ele>5.2</ele>
        <time>2020-05-28T19:04:01Z</time>
      </trkpt>
      <trkpt lat="51.227793" lon="4.467189">
        <ele>5.3</ele>
        <time>2020-05-28T19:04:04Z</time>
      </trkpt>
      <trkpt lat="51.227824" lon="4.467333">
        <ele>5.5</ele>
        <time>2020-05-28T19:04:07Z</time>
      </trkpt>
      <trkpt lat="51.227852" lon="4.467455">
        <ele>5.5</ele>
        <time>2020-05-28T19:04:10Z</time>
      </trkpt>
      <trkpt lat="51.227885" lon="4.467613">
        <ele>5.5</ele>
        <time>2020-05-28T19:04:14Z</time>
      </trkpt>
      <trkpt lat="51.227914" lon="4.467734">
        <ele>5.5</ele>
        <time>2020-05-28T19:04:17Z</time>
      </trkpt>
      <trkpt lat="51.227941" lon="4.467863">
        <ele>5.5</ele>
        <time>2020-05-28T19:04:20Z</time>
      </trkpt>
      <trkpt lat="51.227981" lon="4.468014">
        <ele>5.5</ele>
        <time>2020-05-28T19:04:24Z</time>
      </trkpt>
      <trkpt lat="51.228016" lon="4.468151">
        <ele>5.2</ele>
        <time>2020-05-28T19:04:27Z</time>
      </trkpt>
      <trkpt lat="51.228054" lon="4.468292">
        <ele>4.9</ele>
        <time>2020-05-28T19:04:30Z</time>
      </trkpt>
      <trkpt lat="51.22809" lon="4.468432">
        <ele>4.6</ele>
        <time>2020-05-28T19:04:33Z</time>
      </trkpt>
      <trkpt lat="51.228128" lon="4.468593">
        <ele>4.4</ele>
        <time>2020-05-28T19:04:36Z</time>
      </trkpt>
      <trkpt lat="51.228176" lon="4.46874">
        <ele>4.1</ele>
        <time>2020-05-28T19:04:39Z</time>
      </trkpt>
      <trkpt lat="51.228221" lon="4.468887">
        <ele>3.7</ele>
        <time>2020-05-28T19:04:42Z</time>
      </trkpt>
      <trkpt lat="51.22826" lon="4.469033">
        <ele>3.5</ele>
        <time>2020-05-28T19:04:45Z</time>
      </trkpt>
      <trkpt lat="51.228309" lon="4.469169">
        <ele>3.2</ele>
        <time>2020-05-28T19:04:48Z</time>
      </trkpt>
      <trkpt lat="51.228361" lon="4.469295">
        <ele>2.9</ele>
        <time>2020-05-28T19:04:51Z</time>
      </trkpt>
      <trkpt lat="51.228429" lon="4.469396">
        <ele>2.6</ele>
        <time>2020-05-28T19:04:54Z</time>
      </trkpt>
      <trkpt lat="51.228491" lon="4.469518">
        <ele>2.5</ele>
        <time>2020-05-28T19:04:57Z</time>
      </trkpt>
      <trkpt lat="51.228552" lon="4.469658">
        <ele>2.4</ele>
        <time>2020-05-28T19:05:00Z</time>
      </trkpt>
      <trkpt lat="51.228608" lon="4.469792">
        <ele>2.4</ele>
        <time>2020-05-28T19:05:03Z</time>
      </trkpt>
      <trkpt lat="51.228659" lon="4.469908">
        <ele>2.3</ele>
        <time>2020-05-28T19:05:07Z</time>
      </trkpt>
      <trkpt lat="51.228664" lon="4.4699">
        <ele>2.2</ele>
        <time>2020-05-28T19:05:11Z</time>
      </trkpt>
      <trkpt lat="51.22859" lon="4.470276">
        <ele>2.2</ele>
        <time>2020-05-28T19:06:43Z</time>
      </trkpt>
      <trkpt lat="51.228559" lon="4.470304">
        <ele>2.1</ele>
        <time>2020-05-28T19:06:44Z</time>
      </trkpt>
      <trkpt lat="51.22851" lon="4.47043">
        <ele>2.2</ele>
        <time>2020-05-28T19:06:49Z</time>
      </trkpt>
      <trkpt lat="51.228556" lon="4.470548">
        <ele>2.3</ele>
        <time>2020-05-28T19:06:52Z</time>
      </trkpt>
      <trkpt lat="51.228615" lon="4.470664">
        <ele>2.4</ele>
        <time>2020-05-28T19:06:55Z</time>
      </trkpt>
      <trkpt lat="51.228676" lon="4.470784">
        <ele>2.5</ele>
        <time>2020-05-28T19:06:58Z</time>
      </trkpt>
      <trkpt lat="51.228727" lon="4.470908">
        <ele>2.5</ele>
        <time>2020-05-28T19:07:01Z</time>
      </trkpt>
      <trkpt lat="51.228768" lon="4.471024">
        <ele>2.7</ele>
        <time>2020-05-28T19:07:04Z</time>
      </trkpt>
      <trkpt lat="51.2288" lon="4.471182">
        <ele>2.8</ele>
        <time>2020-05-28T19:07:08Z</time>
      </trkpt>
      <trkpt lat="51.228864" lon="4.471264">
        <ele>3.1</ele>
        <time>2020-05-28T19:07:11Z</time>
      </trkpt>
      <trkpt lat="51.228923" lon="4.471363">
        <ele>3.4</ele>
        <time>2020-05-28T19:07:14Z</time>
      </trkpt>
      <trkpt lat="51.228977" lon="4.47147">
        <ele>3.7</ele>
        <time>2020-05-28T19:07:17Z</time>
      </trkpt>
      <trkpt lat="51.229046" lon="4.471607">
        <ele>4.1</ele>
        <time>2020-05-28T19:07:21Z</time>
      </trkpt>
      <trkpt lat="51.229097" lon="4.471726">
        <ele>4.4</ele>
        <time>2020-05-28T19:07:24Z</time>
      </trkpt>
      <trkpt lat="51.229152" lon="4.471857">
        <ele>4.6</ele>
        <time>2020-05-28T19:07:27Z</time>
      </trkpt>
      <trkpt lat="51.229203" lon="4.471983">
        <ele>4.9</ele>
        <time>2020-05-28T19:07:30Z</time>
      </trkpt>
      <trkpt lat="51.229239" lon="4.47212">
        <ele>5.1</ele>
        <time>2020-05-28T19:07:33Z</time>
      </trkpt>
      <trkpt lat="51.229291" lon="4.472241">
        <ele>5.3</ele>
        <time>2020-05-28T19:07:36Z</time>
      </trkpt>
      <trkpt lat="51.229351" lon="4.472352">
        <ele>5.4</ele>
        <time>2020-05-28T19:07:39Z</time>
      </trkpt>
      <trkpt lat="51.22938" lon="4.472478">
        <ele>5.5</ele>
        <time>2020-05-28T19:07:42Z</time>
      </trkpt>
      <trkpt lat="51.22932" lon="4.472588">
        <ele>5.5</ele>
        <time>2020-05-28T19:07:45Z</time>
      </trkpt>
      <trkpt lat="51.229232" lon="4.472678">
        <ele>5.4</ele>
        <time>2020-05-28T19:07:48Z</time>
      </trkpt>
      <trkpt lat="51.229154" lon="4.472757">
        <ele>5.2</ele>
        <time>2020-05-28T19:07:51Z</time>
      </trkpt>
      <trkpt lat="51.229076" lon="4.472842">
        <ele>4.9</ele>
        <time>2020-05-28T19:07:54Z</time>
      </trkpt>
      <trkpt lat="51.22898" lon="4.472939">
        <ele>4.6</ele>
        <time>2020-05-28T19:07:57Z</time>
      </trkpt>
      <trkpt lat="51.228886" lon="4.473029">
        <ele>4.4</ele>
        <time>2020-05-28T19:08:00Z</time>
      </trkpt>
      <trkpt lat="51.228802" lon="4.473123">
        <ele>4.1</ele>
        <time>2020-05-28T19:08:03Z</time>
      </trkpt>
      <trkpt lat="51.228725" lon="4.473202">
        <ele>3.9</ele>
        <time>2020-05-28T19:08:06Z</time>
      </trkpt>
      <trkpt lat="51.22864" lon="4.473301">
        <ele>3.7</ele>
        <time>2020-05-28T19:08:09Z</time>
      </trkpt>
      <trkpt lat="51.228548" lon="4.473404">
        <ele>3.5</ele>
        <time>2020-05-28T19:08:12Z</time>
      </trkpt>
      <trkpt lat="51.22846" lon="4.4735">
        <ele>3.4</ele>
        <time>2020-05-28T19:08:15Z</time>
      </trkpt>
      <trkpt lat="51.228373" lon="4.473598">
        <ele>3.2</ele>
        <time>2020-05-28T19:08:18Z</time>
      </trkpt>
      <trkpt lat="51.228281" lon="4.473705">
        <ele>3.2</ele>
        <time>2020-05-28T19:08:21Z</time>
      </trkpt>
      <trkpt lat="51.228201" lon="4.473804">
        <ele>3.2</ele>
        <time>2020-05-28T19:08:24Z</time>
      </trkpt>
      <trkpt lat="51.22812" lon="4.473884">
        <ele>3.3</ele>
        <time>2020-05-28T19:08:27Z</time>
      </trkpt>
      <trkpt lat="51.228044" lon="4.473966">
        <ele>3.5</ele>
        <time>2020-05-28T19:08:30Z</time>
      </trkpt>
      <trkpt lat="51.227954" lon="4.474043">
        <ele>3.6</ele>
        <time>2020-05-28T19:08:33Z</time>
      </trkpt>
      <trkpt lat="51.227859" lon="4.474119">
        <ele>3.7</ele>
        <time>2020-05-28T19:08:36Z</time>
      </trkpt>
      <trkpt lat="51.227765" lon="4.474202">
        <ele>3.8</ele>
        <time>2020-05-28T19:08:39Z</time>
      </trkpt>
      <trkpt lat="51.227686" lon="4.474294">
        <ele>3.9</ele>
        <time>2020-05-28T19:08:42Z</time>
      </trkpt>
      <trkpt lat="51.227603" lon="4.474384">
        <ele>4</ele>
        <time>2020-05-28T19:08:45Z</time>
      </trkpt>
      <trkpt lat="51.227518" lon="4.47447">
        <ele>4.1</ele>
        <time>2020-05-28T19:08:48Z</time>
      </trkpt>
      <trkpt lat="51.227431" lon="4.474558">
        <ele>4.2</ele>
        <time>2020-05-28T19:08:51Z</time>
      </trkpt>
      <trkpt lat="51.227348" lon="4.474637">
        <ele>4.2</ele>
        <time>2020-05-28T19:08:54Z</time>
      </trkpt>
      <trkpt lat="51.227266" lon="4.47472">
        <ele>4.2</ele>
        <time>2020-05-28T19:08:57Z</time>
      </trkpt>
      <trkpt lat="51.227183" lon="4.474804">
        <ele>4.3</ele>
        <time>2020-05-28T19:09:00Z</time>
      </trkpt>
      <trkpt lat="51.227094" lon="4.474894">
        <ele>4.3</ele>
        <time>2020-05-28T19:09:04Z</time>
      </trkpt>
      <trkpt lat="51.227046" lon="4.475019">
        <ele>4.3</ele>
        <time>2020-05-28T19:09:08Z</time>
      </trkpt>
      <trkpt lat="51.227088" lon="4.475144">
        <ele>4.3</ele>
        <time>2020-05-28T19:09:11Z</time>
      </trkpt>
      <trkpt lat="51.22716" lon="4.47529">
        <ele>4.3</ele>
        <time>2020-05-28T19:09:14Z</time>
      </trkpt>
      <trkpt lat="51.227225" lon="4.475426">
        <ele>4.3</ele>
        <time>2020-05-28T19:09:17Z</time>
      </trkpt>
      <trkpt lat="51.227288" lon="4.475526">
        <ele>4.3</ele>
        <time>2020-05-28T19:09:20Z</time>
      </trkpt>
      <trkpt lat="51.227346" lon="4.475629">
        <ele>4.2</ele>
        <time>2020-05-28T19:09:23Z</time>
      </trkpt>
      <trkpt lat="51.22741" lon="4.475744">
        <ele>4.1</ele>
        <time>2020-05-28T19:09:26Z</time>
      </trkpt>
      <trkpt lat="51.227468" lon="4.475851">
        <ele>4</ele>
        <time>2020-05-28T19:09:29Z</time>
      </trkpt>
      <trkpt lat="51.227529" lon="4.475964">
        <ele>4</ele>
        <time>2020-05-28T19:09:32Z</time>
      </trkpt>
      <trkpt lat="51.227585" lon="4.476081">
        <ele>3.9</ele>
        <time>2020-05-28T19:09:35Z</time>
      </trkpt>
      <trkpt lat="51.227641" lon="4.476202">
        <ele>3.9</ele>
        <time>2020-05-28T19:09:38Z</time>
      </trkpt>
      <trkpt lat="51.227702" lon="4.476321">
        <ele>3.9</ele>
        <time>2020-05-28T19:09:41Z</time>
      </trkpt>
      <trkpt lat="51.227765" lon="4.476435">
        <ele>4</ele>
        <time>2020-05-28T19:09:44Z</time>
      </trkpt>
      <trkpt lat="51.227823" lon="4.476554">
        <ele>4</ele>
        <time>2020-05-28T19:09:47Z</time>
      </trkpt>
      <trkpt lat="51.227889" lon="4.476672">
        <ele>4</ele>
        <time>2020-05-28T19:09:50Z</time>
      </trkpt>
      <trkpt lat="51.227959" lon="4.476791">
        <ele>3.9</ele>
        <time>2020-05-28T19:09:53Z</time>
      </trkpt>
      <trkpt lat="51.228022" lon="4.47692">
        <ele>3.9</ele>
        <time>2020-05-28T19:09:56Z</time>
      </trkpt>
      <trkpt lat="51.228088" lon="4.477031">
        <ele>3.9</ele>
        <time>2020-05-28T19:09:59Z</time>
      </trkpt>
      <trkpt lat="51.228142" lon="4.477146">
        <ele>3.9</ele>
        <time>2020-05-28T19:10:02Z</time>
      </trkpt>
      <trkpt lat="51.228215" lon="4.477279">
        <ele>3.8</ele>
        <time>2020-05-28T19:10:06Z</time>
      </trkpt>
      <trkpt lat="51.228279" lon="4.477381">
        <ele>3.7</ele>
        <time>2020-05-28T19:10:09Z</time>
      </trkpt>
      <trkpt lat="51.228332" lon="4.477485">
        <ele>3.6</ele>
        <time>2020-05-28T19:10:12Z</time>
      </trkpt>
      <trkpt lat="51.228378" lon="4.477612">
        <ele>3.5</ele>
        <time>2020-05-28T19:10:15Z</time>
      </trkpt>
      <trkpt lat="51.228391" lon="4.477775">
        <ele>3.5</ele>
        <time>2020-05-28T19:10:18Z</time>
      </trkpt>
      <trkpt lat="51.228395" lon="4.477932">
        <ele>3.5</ele>
        <time>2020-05-28T19:10:22Z</time>
      </trkpt>
      <trkpt lat="51.228388" lon="4.478066">
        <ele>3.5</ele>
        <time>2020-05-28T19:10:26Z</time>
      </trkpt>
      <trkpt lat="51.228385" lon="4.478214">
        <ele>3.7</ele>
        <time>2020-05-28T19:10:31Z</time>
      </trkpt>
      <trkpt lat="51.228389" lon="4.478384">
        <ele>4</ele>
        <time>2020-05-28T19:10:36Z</time>
      </trkpt>
      <trkpt lat="51.228389" lon="4.478515">
        <ele>4.4</ele>
        <time>2020-05-28T19:10:39Z</time>
      </trkpt>
      <trkpt lat="51.228385" lon="4.478689">
        <ele>4.7</ele>
        <time>2020-05-28T19:10:43Z</time>
      </trkpt>
      <trkpt lat="51.22836" lon="4.478836">
        <ele>5.1</ele>
        <time>2020-05-28T19:10:47Z</time>
      </trkpt>
      <trkpt lat="51.228273" lon="4.478865">
        <ele>5.5</ele>
        <time>2020-05-28T19:10:50Z</time>
      </trkpt>
      <trkpt lat="51.228181" lon="4.478854">
        <ele>5.8</ele>
        <time>2020-05-28T19:10:53Z</time>
      </trkpt>
      <trkpt lat="51.228081" lon="4.478842">
        <ele>6.1</ele>
        <time>2020-05-28T19:10:56Z</time>
      </trkpt>
      <trkpt lat="51.227988" lon="4.47883">
        <ele>6.4</ele>
        <time>2020-05-28T19:10:59Z</time>
      </trkpt>
      <trkpt lat="51.227897" lon="4.478815">
        <ele>6.5</ele>
        <time>2020-05-28T19:11:02Z</time>
      </trkpt>
      <trkpt lat="51.227807" lon="4.478806">
        <ele>6.6</ele>
        <time>2020-05-28T19:11:05Z</time>
      </trkpt>
      <trkpt lat="51.22771" lon="4.478815">
        <ele>6.6</ele>
        <time>2020-05-28T19:11:08Z</time>
      </trkpt>
      <trkpt lat="51.227621" lon="4.478793">
        <ele>6.5</ele>
        <time>2020-05-28T19:11:11Z</time>
      </trkpt>
      <trkpt lat="51.227529" lon="4.478814">
        <ele>6.4</ele>
        <time>2020-05-28T19:11:14Z</time>
      </trkpt>
      <trkpt lat="51.227435" lon="4.478822">
        <ele>6.2</ele>
        <time>2020-05-28T19:11:17Z</time>
      </trkpt>
      <trkpt lat="51.227335" lon="4.47881">
        <ele>6</ele>
        <time>2020-05-28T19:11:20Z</time>
      </trkpt>
      <trkpt lat="51.227239" lon="4.478812">
        <ele>5.7</ele>
        <time>2020-05-28T19:11:23Z</time>
      </trkpt>
      <trkpt lat="51.22714" lon="4.478836">
        <ele>5.5</ele>
        <time>2020-05-28T19:11:26Z</time>
      </trkpt>
      <trkpt lat="51.22704" lon="4.478846">
        <ele>5.3</ele>
        <time>2020-05-28T19:11:29Z</time>
      </trkpt>
      <trkpt lat="51.226929" lon="4.478857">
        <ele>5</ele>
        <time>2020-05-28T19:11:32Z</time>
      </trkpt>
      <trkpt lat="51.22682" lon="4.478854">
        <ele>4.9</ele>
        <time>2020-05-28T19:11:35Z</time>
      </trkpt>
      <trkpt lat="51.226712" lon="4.478848">
        <ele>4.8</ele>
        <time>2020-05-28T19:11:38Z</time>
      </trkpt>
      <trkpt lat="51.226604" lon="4.478843">
        <ele>4.8</ele>
        <time>2020-05-28T19:11:41Z</time>
      </trkpt>
      <trkpt lat="51.22649" lon="4.478841">
        <ele>4.9</ele>
        <time>2020-05-28T19:11:44Z</time>
      </trkpt>
      <trkpt lat="51.226375" lon="4.478837">
        <ele>5</ele>
        <time>2020-05-28T19:11:47Z</time>
      </trkpt>
      <trkpt lat="51.226263" lon="4.478817">
        <ele>5.1</ele>
        <time>2020-05-28T19:11:50Z</time>
      </trkpt>
      <trkpt lat="51.226147" lon="4.478827">
        <ele>5.2</ele>
        <time>2020-05-28T19:11:53Z</time>
      </trkpt>
      <trkpt lat="51.226034" lon="4.478835">
        <ele>5.3</ele>
        <time>2020-05-28T19:11:56Z</time>
      </trkpt>
      <trkpt lat="51.225922" lon="4.478837">
        <ele>5.4</ele>
        <time>2020-05-28T19:11:59Z</time>
      </trkpt>
      <trkpt lat="51.225823" lon="4.478852">
        <ele>5.5</ele>
        <time>2020-05-28T19:12:02Z</time>
      </trkpt>
      <trkpt lat="51.225724" lon="4.478826">
        <ele>5.7</ele>
        <time>2020-05-28T19:12:05Z</time>
      </trkpt>
      <trkpt lat="51.225639" lon="4.478723">
        <ele>5.8</ele>
        <time>2020-05-28T19:12:08Z</time>
      </trkpt>
      <trkpt lat="51.225566" lon="4.478599">
        <ele>5.9</ele>
        <time>2020-05-28T19:12:11Z</time>
      </trkpt>
      <trkpt lat="51.225511" lon="4.47848">
        <ele>6</ele>
        <time>2020-05-28T19:12:14Z</time>
      </trkpt>
      <trkpt lat="51.22545" lon="4.478382">
        <ele>6</ele>
        <time>2020-05-28T19:12:17Z</time>
      </trkpt>
      <trkpt lat="51.22539" lon="4.478269">
        <ele>6</ele>
        <time>2020-05-28T19:12:20Z</time>
      </trkpt>
      <trkpt lat="51.225367" lon="4.478134">
        <ele>6</ele>
        <time>2020-05-28T19:12:23Z</time>
      </trkpt>
      <trkpt lat="51.225354" lon="4.478034">
        <ele>6</ele>
        <time>2020-05-28T19:12:37Z</time>
      </trkpt>
      <trkpt lat="51.225316" lon="4.478171">
        <ele>6</ele>
        <time>2020-05-28T19:12:54Z</time>
      </trkpt>
      <trkpt lat="51.225371" lon="4.47827">
        <ele>6</ele>
        <time>2020-05-28T19:12:57Z</time>
      </trkpt>
      <trkpt lat="51.22545" lon="4.478377">
        <ele>6</ele>
        <time>2020-05-28T19:13:01Z</time>
      </trkpt>
      <trkpt lat="51.22551" lon="4.478496">
        <ele>6</ele>
        <time>2020-05-28T19:13:05Z</time>
      </trkpt>
      <trkpt lat="51.225578" lon="4.47862">
        <ele>6</ele>
        <time>2020-05-28T19:13:09Z</time>
      </trkpt>
      <trkpt lat="51.225617" lon="4.478755">
        <ele>6</ele>
        <time>2020-05-28T19:13:13Z</time>
      </trkpt>
      <trkpt lat="51.225571" lon="4.478635">
        <ele>6</ele>
        <time>2020-05-28T19:13:17Z</time>
      </trkpt>
      <trkpt lat="51.225532" lon="4.478514">
        <ele>6</ele>
        <time>2020-05-28T19:13:20Z</time>
      </trkpt>
      <trkpt lat="51.225463" lon="4.478408">
        <ele>6</ele>
        <time>2020-05-28T19:13:23Z</time>
      </trkpt>
      <trkpt lat="51.225393" lon="4.478293">
        <ele>6</ele>
        <time>2020-05-28T19:13:26Z</time>
      </trkpt>
      <trkpt lat="51.225327" lon="4.478188">
        <ele>6</ele>
        <time>2020-05-28T19:13:29Z</time>
      </trkpt>
      <trkpt lat="51.225266" lon="4.478095">
        <ele>6</ele>
        <time>2020-05-28T19:13:32Z</time>
      </trkpt>
      <trkpt lat="51.225212" lon="4.477961">
        <ele>6</ele>
        <time>2020-05-28T19:13:36Z</time>
      </trkpt>
      <trkpt lat="51.225303" lon="4.477975">
        <ele>6</ele>
        <time>2020-05-28T19:13:40Z</time>
      </trkpt>
      <trkpt lat="51.22533" lon="4.478142">
        <ele>6</ele>
        <time>2020-05-28T19:13:43Z</time>
      </trkpt>
      <trkpt lat="51.225371" lon="4.478287">
        <ele>6</ele>
        <time>2020-05-28T19:13:46Z</time>
      </trkpt>
      <trkpt lat="51.225428" lon="4.478421">
        <ele>6</ele>
        <time>2020-05-28T19:13:49Z</time>
      </trkpt>
      <trkpt lat="51.225488" lon="4.478549">
        <ele>6</ele>
        <time>2020-05-28T19:13:52Z</time>
      </trkpt>
      <trkpt lat="51.225547" lon="4.478664">
        <ele>6</ele>
        <time>2020-05-28T19:13:55Z</time>
      </trkpt>
      <trkpt lat="51.225511" lon="4.478824">
        <ele>6</ele>
        <time>2020-05-28T19:13:59Z</time>
      </trkpt>
      <trkpt lat="51.225429" lon="4.4789">
        <ele>6</ele>
        <time>2020-05-28T19:14:02Z</time>
      </trkpt>
      <trkpt lat="51.225324" lon="4.478881">
        <ele>5.9</ele>
        <time>2020-05-28T19:14:05Z</time>
      </trkpt>
      <trkpt lat="51.22521" lon="4.47887">
        <ele>5.8</ele>
        <time>2020-05-28T19:14:08Z</time>
      </trkpt>
      <trkpt lat="51.225101" lon="4.478864">
        <ele>5.7</ele>
        <time>2020-05-28T19:14:11Z</time>
      </trkpt>
      <trkpt lat="51.224997" lon="4.478864">
        <ele>5.5</ele>
        <time>2020-05-28T19:14:14Z</time>
      </trkpt>
      <trkpt lat="51.224897" lon="4.478863">
        <ele>5.4</ele>
        <time>2020-05-28T19:14:17Z</time>
      </trkpt>
      <trkpt lat="51.224809" lon="4.478868">
        <ele>5.1</ele>
        <time>2020-05-28T19:14:20Z</time>
      </trkpt>
      <trkpt lat="51.224708" lon="4.478869">
        <ele>4.8</ele>
        <time>2020-05-28T19:14:23Z</time>
      </trkpt>
      <trkpt lat="51.224604" lon="4.478871">
        <ele>4.5</ele>
        <time>2020-05-28T19:14:26Z</time>
      </trkpt>
      <trkpt lat="51.224493" lon="4.478873">
        <ele>4.2</ele>
        <time>2020-05-28T19:14:29Z</time>
      </trkpt>
      <trkpt lat="51.224381" lon="4.47889">
        <ele>3.8</ele>
        <time>2020-05-28T19:14:32Z</time>
      </trkpt>
      <trkpt lat="51.224268" lon="4.478907">
        <ele>3.5</ele>
        <time>2020-05-28T19:14:35Z</time>
      </trkpt>
      <trkpt lat="51.224169" lon="4.478897">
        <ele>3.3</ele>
        <time>2020-05-28T19:14:38Z</time>
      </trkpt>
      <trkpt lat="51.224077" lon="4.478904">
        <ele>3.1</ele>
        <time>2020-05-28T19:14:41Z</time>
      </trkpt>
      <trkpt lat="51.223983" lon="4.478903">
        <ele>3</ele>
        <time>2020-05-28T19:14:44Z</time>
      </trkpt>
      <trkpt lat="51.223883" lon="4.478897">
        <ele>3.1</ele>
        <time>2020-05-28T19:14:47Z</time>
      </trkpt>
      <trkpt lat="51.223791" lon="4.478899">
        <ele>3.2</ele>
        <time>2020-05-28T19:14:50Z</time>
      </trkpt>
      <trkpt lat="51.223697" lon="4.478925">
        <ele>3.5</ele>
        <time>2020-05-28T19:14:53Z</time>
      </trkpt>
      <trkpt lat="51.223598" lon="4.478892">
        <ele>3.7</ele>
        <time>2020-05-28T19:14:56Z</time>
      </trkpt>
      <trkpt lat="51.223484" lon="4.478921">
        <ele>4</ele>
        <time>2020-05-28T19:14:59Z</time>
      </trkpt>
      <trkpt lat="51.223373" lon="4.478939">
        <ele>4.5</ele>
        <time>2020-05-28T19:15:02Z</time>
      </trkpt>
      <trkpt lat="51.223269" lon="4.478927">
        <ele>4.9</ele>
        <time>2020-05-28T19:15:05Z</time>
      </trkpt>
      <trkpt lat="51.223163" lon="4.478951">
        <ele>5.4</ele>
        <time>2020-05-28T19:15:08Z</time>
      </trkpt>
      <trkpt lat="51.223049" lon="4.478972">
        <ele>5.7</ele>
        <time>2020-05-28T19:15:11Z</time>
      </trkpt>
      <trkpt lat="51.222937" lon="4.478996">
        <ele>6.1</ele>
        <time>2020-05-28T19:15:14Z</time>
      </trkpt>
      <trkpt lat="51.222822" lon="4.479023">
        <ele>6.4</ele>
        <time>2020-05-28T19:15:17Z</time>
      </trkpt>
      <trkpt lat="51.22274" lon="4.479046">
        <ele>6.5</ele>
        <time>2020-05-28T19:15:19Z</time>
      </trkpt>
      <trkpt lat="51.222625" lon="4.479079">
        <ele>6.7</ele>
        <time>2020-05-28T19:15:22Z</time>
      </trkpt>
      <trkpt lat="51.222521" lon="4.479135">
        <ele>6.7</ele>
        <time>2020-05-28T19:15:25Z</time>
      </trkpt>
      <trkpt lat="51.222414" lon="4.479183">
        <ele>6.7</ele>
        <time>2020-05-28T19:15:28Z</time>
      </trkpt>
      <trkpt lat="51.222302" lon="4.479235">
        <ele>6.6</ele>
        <time>2020-05-28T19:15:31Z</time>
      </trkpt>
      <trkpt lat="51.22219" lon="4.47929">
        <ele>6.5</ele>
        <time>2020-05-28T19:15:34Z</time>
      </trkpt>
      <trkpt lat="51.222086" lon="4.479334">
        <ele>6.3</ele>
        <time>2020-05-28T19:15:37Z</time>
      </trkpt>
      <trkpt lat="51.221981" lon="4.479389">
        <ele>6.1</ele>
        <time>2020-05-28T19:15:40Z</time>
      </trkpt>
      <trkpt lat="51.221881" lon="4.479449">
        <ele>5.9</ele>
        <time>2020-05-28T19:15:43Z</time>
      </trkpt>
      <trkpt lat="51.221767" lon="4.479503">
        <ele>5.7</ele>
        <time>2020-05-28T19:15:46Z</time>
      </trkpt>
      <trkpt lat="51.221666" lon="4.479559">
        <ele>5.5</ele>
        <time>2020-05-28T19:15:49Z</time>
      </trkpt>
      <trkpt lat="51.22158" lon="4.479606">
        <ele>5.4</ele>
        <time>2020-05-28T19:15:52Z</time>
      </trkpt>
      <trkpt lat="51.221495" lon="4.47965">
        <ele>5.3</ele>
        <time>2020-05-28T19:15:55Z</time>
      </trkpt>
      <trkpt lat="51.221414" lon="4.479647">
        <ele>5.3</ele>
        <time>2020-05-28T19:15:58Z</time>
      </trkpt>
      <trkpt lat="51.221326" lon="4.479696">
        <ele>5.3</ele>
        <time>2020-05-28T19:16:01Z</time>
      </trkpt>
      <trkpt lat="51.221238" lon="4.479763">
        <ele>5.4</ele>
        <time>2020-05-28T19:16:04Z</time>
      </trkpt>
      <trkpt lat="51.221149" lon="4.479834">
        <ele>5.5</ele>
        <time>2020-05-28T19:16:07Z</time>
      </trkpt>
      <trkpt lat="51.22106" lon="4.479878">
        <ele>5.7</ele>
        <time>2020-05-28T19:16:10Z</time>
      </trkpt>
      <trkpt lat="51.220961" lon="4.47992">
        <ele>5.9</ele>
        <time>2020-05-28T19:16:14Z</time>
      </trkpt>
      <trkpt lat="51.220863" lon="4.479966">
        <ele>6.1</ele>
        <time>2020-05-28T19:16:18Z</time>
      </trkpt>
      <trkpt lat="51.220775" lon="4.480004">
        <ele>6.4</ele>
        <time>2020-05-28T19:16:22Z</time>
      </trkpt>
      <trkpt lat="51.220684" lon="4.480049">
        <ele>6.6</ele>
        <time>2020-05-28T19:16:26Z</time>
      </trkpt>
      <trkpt lat="51.2206" lon="4.480066">
        <ele>6.9</ele>
        <time>2020-05-28T19:16:29Z</time>
      </trkpt>
      <trkpt lat="51.22052" lon="4.480126">
        <ele>7.1</ele>
        <time>2020-05-28T19:16:32Z</time>
      </trkpt>
      <trkpt lat="51.220432" lon="4.480185">
        <ele>7.3</ele>
        <time>2020-05-28T19:16:35Z</time>
      </trkpt>
      <trkpt lat="51.220346" lon="4.480226">
        <ele>7.4</ele>
        <time>2020-05-28T19:16:38Z</time>
      </trkpt>
      <trkpt lat="51.220259" lon="4.480266">
        <ele>7.5</ele>
        <time>2020-05-28T19:16:41Z</time>
      </trkpt>
      <trkpt lat="51.220169" lon="4.480301">
        <ele>7.5</ele>
        <time>2020-05-28T19:16:44Z</time>
      </trkpt>
      <trkpt lat="51.220082" lon="4.480339">
        <ele>7.5</ele>
        <time>2020-05-28T19:16:47Z</time>
      </trkpt>
      <trkpt lat="51.219989" lon="4.480384">
        <ele>7.6</ele>
        <time>2020-05-28T19:16:50Z</time>
      </trkpt>
      <trkpt lat="51.219894" lon="4.480438">
        <ele>7.8</ele>
        <time>2020-05-28T19:16:53Z</time>
      </trkpt>
      <trkpt lat="51.219792" lon="4.480493">
        <ele>7.9</ele>
        <time>2020-05-28T19:16:56Z</time>
      </trkpt>
      <trkpt lat="51.21969" lon="4.480524">
        <ele>7.9</ele>
        <time>2020-05-28T19:16:59Z</time>
      </trkpt>
      <trkpt lat="51.219604" lon="4.48047">
        <ele>7.9</ele>
        <time>2020-05-28T19:17:02Z</time>
      </trkpt>
      <trkpt lat="51.219553" lon="4.48032">
        <ele>7.9</ele>
        <time>2020-05-28T19:17:05Z</time>
      </trkpt>
      <trkpt lat="51.219528" lon="4.480152">
        <ele>7.9</ele>
        <time>2020-05-28T19:17:08Z</time>
      </trkpt>
      <trkpt lat="51.219507" lon="4.47999">
        <ele>8</ele>
        <time>2020-05-28T19:17:11Z</time>
      </trkpt>
      <trkpt lat="51.21948" lon="4.479848">
        <ele>8</ele>
        <time>2020-05-28T19:17:14Z</time>
      </trkpt>
      <trkpt lat="51.219458" lon="4.479712">
        <ele>8</ele>
        <time>2020-05-28T19:17:17Z</time>
      </trkpt>
      <trkpt lat="51.219436" lon="4.479582">
        <ele>8</ele>
        <time>2020-05-28T19:17:20Z</time>
      </trkpt>
      <trkpt lat="51.219411" lon="4.479433">
        <ele>8</ele>
        <time>2020-05-28T19:17:23Z</time>
      </trkpt>
      <trkpt lat="51.219383" lon="4.479289">
        <ele>7.9</ele>
        <time>2020-05-28T19:17:26Z</time>
      </trkpt>
      <trkpt lat="51.219351" lon="4.479135">
        <ele>7.8</ele>
        <time>2020-05-28T19:17:29Z</time>
      </trkpt>
      <trkpt lat="51.219322" lon="4.478994">
        <ele>7.8</ele>
        <time>2020-05-28T19:17:32Z</time>
      </trkpt>
      <trkpt lat="51.219287" lon="4.478845">
        <ele>7.8</ele>
        <time>2020-05-28T19:17:35Z</time>
      </trkpt>
      <trkpt lat="51.219256" lon="4.478695">
        <ele>7.8</ele>
        <time>2020-05-28T19:17:38Z</time>
      </trkpt>
      <trkpt lat="51.219217" lon="4.478546">
        <ele>7.8</ele>
        <time>2020-05-28T19:17:41Z</time>
      </trkpt>
      <trkpt lat="51.219179" lon="4.478385">
        <ele>7.7</ele>
        <time>2020-05-28T19:17:44Z</time>
      </trkpt>
      <trkpt lat="51.219146" lon="4.478207">
        <ele>7.7</ele>
        <time>2020-05-28T19:17:47Z</time>
      </trkpt>
      <trkpt lat="51.219105" lon="4.478031">
        <ele>7.6</ele>
        <time>2020-05-28T19:17:50Z</time>
      </trkpt>
      <trkpt lat="51.219061" lon="4.477855">
        <ele>7.4</ele>
        <time>2020-05-28T19:17:53Z</time>
      </trkpt>
      <trkpt lat="51.219021" lon="4.477678">
        <ele>7.1</ele>
        <time>2020-05-28T19:17:56Z</time>
      </trkpt>
      <trkpt lat="51.218985" lon="4.477495">
        <ele>6.8</ele>
        <time>2020-05-28T19:17:59Z</time>
      </trkpt>
      <trkpt lat="51.218958" lon="4.477315">
        <ele>6.5</ele>
        <time>2020-05-28T19:18:02Z</time>
      </trkpt>
      <trkpt lat="51.218929" lon="4.477131">
        <ele>6.3</ele>
        <time>2020-05-28T19:18:05Z</time>
      </trkpt>
      <trkpt lat="51.218919" lon="4.477">
        <ele>6</ele>
        <time>2020-05-28T19:18:07Z</time>
      </trkpt>
      <trkpt lat="51.218917" lon="4.47687">
        <ele>5.8</ele>
        <time>2020-05-28T19:18:09Z</time>
      </trkpt>
      <trkpt lat="51.218918" lon="4.476739">
        <ele>5.6</ele>
        <time>2020-05-28T19:18:11Z</time>
      </trkpt>
      <trkpt lat="51.218925" lon="4.476609">
        <ele>5.5</ele>
        <time>2020-05-28T19:18:13Z</time>
      </trkpt>
      <trkpt lat="51.218941" lon="4.476469">
        <ele>5.4</ele>
        <time>2020-05-28T19:18:15Z</time>
      </trkpt>
      <trkpt lat="51.218954" lon="4.476318">
        <ele>5.3</ele>
        <time>2020-05-28T19:18:17Z</time>
      </trkpt>
      <trkpt lat="51.218972" lon="4.476177">
        <ele>5.3</ele>
        <time>2020-05-28T19:18:19Z</time>
      </trkpt>
      <trkpt lat="51.218997" lon="4.475992">
        <ele>5.2</ele>
        <time>2020-05-28T19:18:22Z</time>
      </trkpt>
      <trkpt lat="51.219019" lon="4.47579">
        <ele>5.1</ele>
        <time>2020-05-28T19:18:25Z</time>
      </trkpt>
      <trkpt lat="51.219044" lon="4.475667">
        <ele>5.1</ele>
        <time>2020-05-28T19:18:27Z</time>
      </trkpt>
      <trkpt lat="51.219074" lon="4.475489">
        <ele>5.1</ele>
        <time>2020-05-28T19:18:30Z</time>
      </trkpt>
      <trkpt lat="51.219089" lon="4.475315">
        <ele>5.1</ele>
        <time>2020-05-28T19:18:33Z</time>
      </trkpt>
      <trkpt lat="51.219111" lon="4.475144">
        <ele>4.9</ele>
        <time>2020-05-28T19:18:36Z</time>
      </trkpt>
      <trkpt lat="51.219126" lon="4.474959">
        <ele>4.7</ele>
        <time>2020-05-28T19:18:39Z</time>
      </trkpt>
      <trkpt lat="51.219147" lon="4.474786">
        <ele>4.6</ele>
        <time>2020-05-28T19:18:42Z</time>
      </trkpt>
      <trkpt lat="51.219164" lon="4.474621">
        <ele>4.5</ele>
        <time>2020-05-28T19:18:45Z</time>
      </trkpt>
      <trkpt lat="51.219178" lon="4.474455">
        <ele>4.4</ele>
        <time>2020-05-28T19:18:48Z</time>
      </trkpt>
      <trkpt lat="51.219201" lon="4.474277">
        <ele>4.3</ele>
        <time>2020-05-28T19:18:51Z</time>
      </trkpt>
      <trkpt lat="51.219228" lon="4.474107">
        <ele>4.3</ele>
        <time>2020-05-28T19:18:54Z</time>
      </trkpt>
      <trkpt lat="51.219263" lon="4.473938">
        <ele>4.4</ele>
        <time>2020-05-28T19:18:57Z</time>
      </trkpt>
      <trkpt lat="51.219289" lon="4.47378">
        <ele>4.4</ele>
        <time>2020-05-28T19:19:00Z</time>
      </trkpt>
      <trkpt lat="51.21931" lon="4.47361">
        <ele>4.4</ele>
        <time>2020-05-28T19:19:03Z</time>
      </trkpt>
      <trkpt lat="51.219336" lon="4.473456">
        <ele>4.4</ele>
        <time>2020-05-28T19:19:06Z</time>
      </trkpt>
      <trkpt lat="51.219355" lon="4.473302">
        <ele>4.5</ele>
        <time>2020-05-28T19:19:09Z</time>
      </trkpt>
      <trkpt lat="51.219378" lon="4.473145">
        <ele>4.7</ele>
        <time>2020-05-28T19:19:12Z</time>
      </trkpt>
      <trkpt lat="51.219412" lon="4.472982">
        <ele>5</ele>
        <time>2020-05-28T19:19:15Z</time>
      </trkpt>
      <trkpt lat="51.219441" lon="4.47282">
        <ele>5.2</ele>
        <time>2020-05-28T19:19:18Z</time>
      </trkpt>
      <trkpt lat="51.219469" lon="4.472656">
        <ele>5.4</ele>
        <time>2020-05-28T19:19:21Z</time>
      </trkpt>
      <trkpt lat="51.219509" lon="4.472502">
        <ele>5.5</ele>
        <time>2020-05-28T19:19:24Z</time>
      </trkpt>
      <trkpt lat="51.219525" lon="4.472329">
        <ele>5.8</ele>
        <time>2020-05-28T19:19:27Z</time>
      </trkpt>
      <trkpt lat="51.219558" lon="4.472173">
        <ele>6</ele>
        <time>2020-05-28T19:19:30Z</time>
      </trkpt>
      <trkpt lat="51.219591" lon="4.471999">
        <ele>6.2</ele>
        <time>2020-05-28T19:19:33Z</time>
      </trkpt>
      <trkpt lat="51.219618" lon="4.471824">
        <ele>6.5</ele>
        <time>2020-05-28T19:19:36Z</time>
      </trkpt>
      <trkpt lat="51.219658" lon="4.471661">
        <ele>6.7</ele>
        <time>2020-05-28T19:19:39Z</time>
      </trkpt>
      <trkpt lat="51.219692" lon="4.471489">
        <ele>7</ele>
        <time>2020-05-28T19:19:42Z</time>
      </trkpt>
      <trkpt lat="51.219725" lon="4.471316">
        <ele>7.3</ele>
        <time>2020-05-28T19:19:45Z</time>
      </trkpt>
      <trkpt lat="51.219751" lon="4.471135">
        <ele>7.5</ele>
        <time>2020-05-28T19:19:48Z</time>
      </trkpt>
      <trkpt lat="51.219769" lon="4.470961">
        <ele>8</ele>
        <time>2020-05-28T19:19:51Z</time>
      </trkpt>
      <trkpt lat="51.219796" lon="4.470798">
        <ele>8.5</ele>
        <time>2020-05-28T19:19:54Z</time>
      </trkpt>
      <trkpt lat="51.219821" lon="4.470651">
        <ele>9</ele>
        <time>2020-05-28T19:19:57Z</time>
      </trkpt>
      <trkpt lat="51.219855" lon="4.470483">
        <ele>9.5</ele>
        <time>2020-05-28T19:20:01Z</time>
      </trkpt>
      <trkpt lat="51.219896" lon="4.470331">
        <ele>9.9</ele>
        <time>2020-05-28T19:20:04Z</time>
      </trkpt>
      <trkpt lat="51.219924" lon="4.470177">
        <ele>10.3</ele>
        <time>2020-05-28T19:20:07Z</time>
      </trkpt>
      <trkpt lat="51.219944" lon="4.47">
        <ele>10.5</ele>
        <time>2020-05-28T19:20:10Z</time>
      </trkpt>
      <trkpt lat="51.219967" lon="4.469833">
        <ele>10.8</ele>
        <time>2020-05-28T19:20:13Z</time>
      </trkpt>
      <trkpt lat="51.219986" lon="4.46967">
        <ele>11</ele>
        <time>2020-05-28T19:20:16Z</time>
      </trkpt>
      <trkpt lat="51.220016" lon="4.469497">
        <ele>11.2</ele>
        <time>2020-05-28T19:20:19Z</time>
      </trkpt>
      <trkpt lat="51.220044" lon="4.469351">
        <ele>11.4</ele>
        <time>2020-05-28T19:20:22Z</time>
      </trkpt>
      <trkpt lat="51.22006" lon="4.469212">
        <ele>11.4</ele>
        <time>2020-05-28T19:20:26Z</time>
      </trkpt>
      <trkpt lat="51.220046" lon="4.469214">
        <ele>11.5</ele>
        <time>2020-05-28T19:20:33Z</time>
      </trkpt>
      <trkpt lat="51.220043" lon="4.469222">
        <ele>12.7</ele>
        <time>2020-05-28T19:21:02Z</time>
      </trkpt>
      <trkpt lat="51.219973" lon="4.46917">
        <ele>13.3</ele>
        <time>2020-05-28T19:21:09Z</time>
      </trkpt>
      <trkpt lat="51.219894" lon="4.469106">
        <ele>14</ele>
        <time>2020-05-28T19:21:13Z</time>
      </trkpt>
      <trkpt lat="51.219839" lon="4.468974">
        <ele>14.6</ele>
        <time>2020-05-28T19:21:17Z</time>
      </trkpt>
      <trkpt lat="51.219735" lon="4.46895">
        <ele>15</ele>
        <time>2020-05-28T19:21:21Z</time>
      </trkpt>
      <trkpt lat="51.219633" lon="4.468966">
        <ele>15.3</ele>
        <time>2020-05-28T19:21:24Z</time>
      </trkpt>
      <trkpt lat="51.219532" lon="4.468982">
        <ele>15.8</ele>
        <time>2020-05-28T19:21:27Z</time>
      </trkpt>
      <trkpt lat="51.219423" lon="4.468989">
        <ele>16.3</ele>
        <time>2020-05-28T19:21:30Z</time>
      </trkpt>
      <trkpt lat="51.219309" lon="4.468977">
        <ele>16.5</ele>
        <time>2020-05-28T19:21:33Z</time>
      </trkpt>
      <trkpt lat="51.219203" lon="4.468954">
        <ele>16.7</ele>
        <time>2020-05-28T19:21:36Z</time>
      </trkpt>
      <trkpt lat="51.219091" lon="4.46895">
        <ele>16.6</ele>
        <time>2020-05-28T19:21:39Z</time>
      </trkpt>
      <trkpt lat="51.218983" lon="4.468943">
        <ele>16.3</ele>
        <time>2020-05-28T19:21:42Z</time>
      </trkpt>
      <trkpt lat="51.218875" lon="4.468926">
        <ele>15.7</ele>
        <time>2020-05-28T19:21:45Z</time>
      </trkpt>
      <trkpt lat="51.218787" lon="4.468927">
        <ele>14.9</ele>
        <time>2020-05-28T19:21:48Z</time>
      </trkpt>
      <trkpt lat="51.218682" lon="4.46891">
        <ele>14</ele>
        <time>2020-05-28T19:21:51Z</time>
      </trkpt>
      <trkpt lat="51.218586" lon="4.468858">
        <ele>13</ele>
        <time>2020-05-28T19:21:54Z</time>
      </trkpt>
      <trkpt lat="51.218514" lon="4.46878">
        <ele>12.1</ele>
        <time>2020-05-28T19:21:57Z</time>
      </trkpt>
      <trkpt lat="51.21849" lon="4.468613">
        <ele>11.3</ele>
        <time>2020-05-28T19:22:01Z</time>
      </trkpt>
      <trkpt lat="51.218492" lon="4.468479">
        <ele>10.5</ele>
        <time>2020-05-28T19:22:04Z</time>
      </trkpt>
      <trkpt lat="51.218403" lon="4.468384">
        <ele>9.9</ele>
        <time>2020-05-28T19:22:08Z</time>
      </trkpt>
      <trkpt lat="51.218297" lon="4.468374">
        <ele>9.4</ele>
        <time>2020-05-28T19:22:11Z</time>
      </trkpt>
      <trkpt lat="51.218193" lon="4.468351">
        <ele>8.8</ele>
        <time>2020-05-28T19:22:14Z</time>
      </trkpt>
      <trkpt lat="51.218078" lon="4.468321">
        <ele>8.4</ele>
        <time>2020-05-28T19:22:17Z</time>
      </trkpt>
      <trkpt lat="51.217967" lon="4.468314">
        <ele>8.1</ele>
        <time>2020-05-28T19:22:20Z</time>
      </trkpt>
      <trkpt lat="51.217859" lon="4.468314">
        <ele>7.9</ele>
        <time>2020-05-28T19:22:23Z</time>
      </trkpt>
      <trkpt lat="51.217781" lon="4.468237">
        <ele>7.8</ele>
        <time>2020-05-28T19:22:26Z</time>
      </trkpt>
      <trkpt lat="51.217711" lon="4.468163">
        <ele>7.7</ele>
        <time>2020-05-28T19:22:30Z</time>
      </trkpt>
      <trkpt lat="51.217716" lon="4.468196">
        <ele>7.7</ele>
        <time>2020-05-28T19:22:37Z</time>
      </trkpt>
      <trkpt lat="51.217666" lon="4.468136">
        <ele>7.2</ele>
        <time>2020-05-28T19:22:53Z</time>
      </trkpt>
      <trkpt lat="51.217625" lon="4.468115">
        <ele>7.3</ele>
        <time>2020-05-28T19:22:54Z</time>
      </trkpt>
      <trkpt lat="51.217556" lon="4.468014">
        <ele>7.4</ele>
        <time>2020-05-28T19:23:11Z</time>
      </trkpt>
      <trkpt lat="51.217458" lon="4.468009">
        <ele>7.4</ele>
        <time>2020-05-28T19:23:15Z</time>
      </trkpt>
      <trkpt lat="51.217367" lon="4.467973">
        <ele>7.5</ele>
        <time>2020-05-28T19:23:18Z</time>
      </trkpt>
      <trkpt lat="51.217277" lon="4.468017">
        <ele>7.6</ele>
        <time>2020-05-28T19:23:21Z</time>
      </trkpt>
      <trkpt lat="51.217198" lon="4.467993">
        <ele>7.8</ele>
        <time>2020-05-28T19:23:24Z</time>
      </trkpt>
      <trkpt lat="51.217125" lon="4.467899">
        <ele>8</ele>
        <time>2020-05-28T19:23:27Z</time>
      </trkpt>
      <trkpt lat="51.217064" lon="4.467782">
        <ele>8.2</ele>
        <time>2020-05-28T19:23:30Z</time>
      </trkpt>
      <trkpt lat="51.217014" lon="4.467668">
        <ele>8.4</ele>
        <time>2020-05-28T19:23:33Z</time>
      </trkpt>
      <trkpt lat="51.216952" lon="4.467577">
        <ele>8.6</ele>
        <time>2020-05-28T19:23:36Z</time>
      </trkpt>
      <trkpt lat="51.216884" lon="4.467463">
        <ele>8.8</ele>
        <time>2020-05-28T19:23:39Z</time>
      </trkpt>
      <trkpt lat="51.216798" lon="4.467368">
        <ele>9</ele>
        <time>2020-05-28T19:23:42Z</time>
      </trkpt>
      <trkpt lat="51.216713" lon="4.467264">
        <ele>9.2</ele>
        <time>2020-05-28T19:23:45Z</time>
      </trkpt>
      <trkpt lat="51.216635" lon="4.467126">
        <ele>9.4</ele>
        <time>2020-05-28T19:23:48Z</time>
      </trkpt>
      <trkpt lat="51.216552" lon="4.467016">
        <ele>9.4</ele>
        <time>2020-05-28T19:23:51Z</time>
      </trkpt>
      <trkpt lat="51.216475" lon="4.466916">
        <ele>9.2</ele>
        <time>2020-05-28T19:23:54Z</time>
      </trkpt>
      <trkpt lat="51.216411" lon="4.466823">
        <ele>9</ele>
        <time>2020-05-28T19:23:57Z</time>
      </trkpt>
      <trkpt lat="51.216331" lon="4.466722">
        <ele>8.7</ele>
        <time>2020-05-28T19:24:01Z</time>
      </trkpt>
      <trkpt lat="51.216257" lon="4.466627">
        <ele>8.4</ele>
        <time>2020-05-28T19:24:04Z</time>
      </trkpt>
      <trkpt lat="51.216165" lon="4.466517">
        <ele>7.9</ele>
        <time>2020-05-28T19:24:07Z</time>
      </trkpt>
      <trkpt lat="51.216099" lon="4.466426">
        <ele>7.4</ele>
        <time>2020-05-28T19:24:09Z</time>
      </trkpt>
      <trkpt lat="51.216039" lon="4.46633">
        <ele>6.9</ele>
        <time>2020-05-28T19:24:11Z</time>
      </trkpt>
      <trkpt lat="51.215978" lon="4.466233">
        <ele>6.5</ele>
        <time>2020-05-28T19:24:13Z</time>
      </trkpt>
      <trkpt lat="51.21592" lon="4.466134">
        <ele>6.3</ele>
        <time>2020-05-28T19:24:15Z</time>
      </trkpt>
      <trkpt lat="51.215868" lon="4.466033">
        <ele>6</ele>
        <time>2020-05-28T19:24:17Z</time>
      </trkpt>
      <trkpt lat="51.215778" lon="4.465904">
        <ele>5.9</ele>
        <time>2020-05-28T19:24:20Z</time>
      </trkpt>
      <trkpt lat="51.215664" lon="4.465915">
        <ele>6</ele>
        <time>2020-05-28T19:24:23Z</time>
      </trkpt>
      <trkpt lat="51.215594" lon="4.465982">
        <ele>6.1</ele>
        <time>2020-05-28T19:24:25Z</time>
      </trkpt>
      <trkpt lat="51.215506" lon="4.466078">
        <ele>6.4</ele>
        <time>2020-05-28T19:24:28Z</time>
      </trkpt>
      <trkpt lat="51.215441" lon="4.466195">
        <ele>6.7</ele>
        <time>2020-05-28T19:24:31Z</time>
      </trkpt>
      <trkpt lat="51.215437" lon="4.466332">
        <ele>7.1</ele>
        <time>2020-05-28T19:24:34Z</time>
      </trkpt>
      <trkpt lat="51.215431" lon="4.466471">
        <ele>7.4</ele>
        <time>2020-05-28T19:24:37Z</time>
      </trkpt>
      <trkpt lat="51.215421" lon="4.466619">
        <ele>7.5</ele>
        <time>2020-05-28T19:24:40Z</time>
      </trkpt>
      <trkpt lat="51.215421" lon="4.466773">
        <ele>7.5</ele>
        <time>2020-05-28T19:24:43Z</time>
      </trkpt>
      <trkpt lat="51.215423" lon="4.466906">
        <ele>7.3</ele>
        <time>2020-05-28T19:24:46Z</time>
      </trkpt>
      <trkpt lat="51.215339" lon="4.466987">
        <ele>7.2</ele>
        <time>2020-05-28T19:24:50Z</time>
      </trkpt>
      <trkpt lat="51.215256" lon="4.467038">
        <ele>7.1</ele>
        <time>2020-05-28T19:24:53Z</time>
      </trkpt>
      <trkpt lat="51.21517" lon="4.467099">
        <ele>6.9</ele>
        <time>2020-05-28T19:24:56Z</time>
      </trkpt>
      <trkpt lat="51.215064" lon="4.467171">
        <ele>6.7</ele>
        <time>2020-05-28T19:25:00Z</time>
      </trkpt>
      <trkpt lat="51.214995" lon="4.467239">
        <ele>6.5</ele>
        <time>2020-05-28T19:25:03Z</time>
      </trkpt>
      <trkpt lat="51.214899" lon="4.467261">
        <ele>6.2</ele>
        <time>2020-05-28T19:25:08Z</time>
      </trkpt>
      <trkpt lat="51.214818" lon="4.467229">
        <ele>6</ele>
        <time>2020-05-28T19:25:13Z</time>
      </trkpt>
      <trkpt lat="51.214763" lon="4.46711">
        <ele>5.9</ele>
        <time>2020-05-28T19:25:20Z</time>
      </trkpt>
      <trkpt lat="51.214703" lon="4.466987">
        <ele>5.8</ele>
        <time>2020-05-28T19:25:25Z</time>
      </trkpt>
      <trkpt lat="51.214643" lon="4.466853">
        <ele>5.7</ele>
        <time>2020-05-28T19:25:29Z</time>
      </trkpt>
      <trkpt lat="51.214576" lon="4.466757">
        <ele>5.6</ele>
        <time>2020-05-28T19:25:32Z</time>
      </trkpt>
      <trkpt lat="51.214499" lon="4.466688">
        <ele>5.5</ele>
        <time>2020-05-28T19:25:35Z</time>
      </trkpt>
      <trkpt lat="51.214424" lon="4.466609">
        <ele>5.4</ele>
        <time>2020-05-28T19:25:39Z</time>
      </trkpt>
      <trkpt lat="51.214331" lon="4.466521">
        <ele>5.3</ele>
        <time>2020-05-28T19:25:42Z</time>
      </trkpt>
      <trkpt lat="51.214239" lon="4.46644">
        <ele>5.2</ele>
        <time>2020-05-28T19:25:45Z</time>
      </trkpt>
      <trkpt lat="51.214151" lon="4.466388">
        <ele>5.1</ele>
        <time>2020-05-28T19:25:48Z</time>
      </trkpt>
      <trkpt lat="51.214061" lon="4.466335">
        <ele>5</ele>
        <time>2020-05-28T19:25:51Z</time>
      </trkpt>
      <trkpt lat="51.213963" lon="4.466281">
        <ele>4.9</ele>
        <time>2020-05-28T19:25:54Z</time>
      </trkpt>
      <trkpt lat="51.21386" lon="4.466228">
        <ele>4.9</ele>
        <time>2020-05-28T19:25:57Z</time>
      </trkpt>
      <trkpt lat="51.213763" lon="4.466174">
        <ele>5.1</ele>
        <time>2020-05-28T19:26:00Z</time>
      </trkpt>
      <trkpt lat="51.213702" lon="4.466065">
        <ele>5.1</ele>
        <time>2020-05-28T19:26:03Z</time>
      </trkpt>
      <trkpt lat="51.213631" lon="4.465993">
        <ele>5.1</ele>
        <time>2020-05-28T19:26:06Z</time>
      </trkpt>
      <trkpt lat="51.213531" lon="4.466076">
        <ele>5</ele>
        <time>2020-05-28T19:26:09Z</time>
      </trkpt>
      <trkpt lat="51.213445" lon="4.466197">
        <ele>4.7</ele>
        <time>2020-05-28T19:26:12Z</time>
      </trkpt>
      <trkpt lat="51.213343" lon="4.466199">
        <ele>4.5</ele>
        <time>2020-05-28T19:26:15Z</time>
      </trkpt>
      <trkpt lat="51.213315" lon="4.466042">
        <ele>4.2</ele>
        <time>2020-05-28T19:26:18Z</time>
      </trkpt>
      <trkpt lat="51.213334" lon="4.465874">
        <ele>3.8</ele>
        <time>2020-05-28T19:26:21Z</time>
      </trkpt>
      <trkpt lat="51.213372" lon="4.46572">
        <ele>3.5</ele>
        <time>2020-05-28T19:26:24Z</time>
      </trkpt>
      <trkpt lat="51.21339" lon="4.465581">
        <ele>3.1</ele>
        <time>2020-05-28T19:26:27Z</time>
      </trkpt>
      <trkpt lat="51.213317" lon="4.465448">
        <ele>2.6</ele>
        <time>2020-05-28T19:26:30Z</time>
      </trkpt>
      <trkpt lat="51.213203" lon="4.465401">
        <ele>2.1</ele>
        <time>2020-05-28T19:26:33Z</time>
      </trkpt>
      <trkpt lat="51.213096" lon="4.465381">
        <ele>1.7</ele>
        <time>2020-05-28T19:26:36Z</time>
      </trkpt>
      <trkpt lat="51.213004" lon="4.465357">
        <ele>1.5</ele>
        <time>2020-05-28T19:26:39Z</time>
      </trkpt>
      <trkpt lat="51.212914" lon="4.465294">
        <ele>1.5</ele>
        <time>2020-05-28T19:26:43Z</time>
      </trkpt>
      <trkpt lat="51.212833" lon="4.465223">
        <ele>1.5</ele>
        <time>2020-05-28T19:26:47Z</time>
      </trkpt>
      <trkpt lat="51.212743" lon="4.465175">
        <ele>1.7</ele>
        <time>2020-05-28T19:26:51Z</time>
      </trkpt>
      <trkpt lat="51.212664" lon="4.465222">
        <ele>2</ele>
        <time>2020-05-28T19:26:54Z</time>
      </trkpt>
      <trkpt lat="51.21258" lon="4.465285">
        <ele>2.4</ele>
        <time>2020-05-28T19:26:57Z</time>
      </trkpt>
      <trkpt lat="51.212501" lon="4.46534">
        <ele>2.7</ele>
        <time>2020-05-28T19:27:00Z</time>
      </trkpt>
      <trkpt lat="51.212417" lon="4.465378">
        <ele>3.2</ele>
        <time>2020-05-28T19:27:03Z</time>
      </trkpt>
      <trkpt lat="51.212317" lon="4.465434">
        <ele>3.5</ele>
        <time>2020-05-28T19:27:07Z</time>
      </trkpt>
      <trkpt lat="51.212243" lon="4.465493">
        <ele>3.9</ele>
        <time>2020-05-28T19:27:10Z</time>
      </trkpt>
      <trkpt lat="51.212183" lon="4.465603">
        <ele>4.2</ele>
        <time>2020-05-28T19:27:13Z</time>
      </trkpt>
      <trkpt lat="51.212101" lon="4.465657">
        <ele>4.4</ele>
        <time>2020-05-28T19:27:16Z</time>
      </trkpt>
      <trkpt lat="51.211983" lon="4.465633">
        <ele>4.5</ele>
        <time>2020-05-28T19:27:19Z</time>
      </trkpt>
      <trkpt lat="51.211879" lon="4.465612">
        <ele>4.6</ele>
        <time>2020-05-28T19:27:22Z</time>
      </trkpt>
      <trkpt lat="51.211782" lon="4.465602">
        <ele>4.6</ele>
        <time>2020-05-28T19:27:25Z</time>
      </trkpt>
      <trkpt lat="51.211697" lon="4.465614">
        <ele>4.5</ele>
        <time>2020-05-28T19:27:28Z</time>
      </trkpt>
      <trkpt lat="51.211602" lon="4.465635">
        <ele>4.5</ele>
        <time>2020-05-28T19:27:32Z</time>
      </trkpt>
      <trkpt lat="51.211536" lon="4.465709">
        <ele>4.5</ele>
        <time>2020-05-28T19:27:36Z</time>
      </trkpt>
      <trkpt lat="51.211497" lon="4.465835">
        <ele>4.5</ele>
        <time>2020-05-28T19:27:40Z</time>
      </trkpt>
      <trkpt lat="51.211444" lon="4.465933">
        <ele>4.6</ele>
        <time>2020-05-28T19:27:48Z</time>
      </trkpt>
      <trkpt lat="51.211458" lon="4.466082">
        <ele>4.8</ele>
        <time>2020-05-28T19:27:52Z</time>
      </trkpt>
      <trkpt lat="51.211491" lon="4.466244">
        <ele>5.1</ele>
        <time>2020-05-28T19:27:56Z</time>
      </trkpt>
      <trkpt lat="51.211505" lon="4.466381">
        <ele>5.5</ele>
        <time>2020-05-28T19:27:59Z</time>
      </trkpt>
      <trkpt lat="51.211523" lon="4.466531">
        <ele>5.8</ele>
        <time>2020-05-28T19:28:02Z</time>
      </trkpt>
      <trkpt lat="51.211538" lon="4.466669">
        <ele>6.2</ele>
        <time>2020-05-28T19:28:05Z</time>
      </trkpt>
      <trkpt lat="51.211545" lon="4.466807">
        <ele>6.5</ele>
        <time>2020-05-28T19:28:08Z</time>
      </trkpt>
      <trkpt lat="51.21155" lon="4.466953">
        <ele>6.8</ele>
        <time>2020-05-28T19:28:11Z</time>
      </trkpt>
      <trkpt lat="51.21155" lon="4.467105">
        <ele>6.9</ele>
        <time>2020-05-28T19:28:14Z</time>
      </trkpt>
      <trkpt lat="51.211547" lon="4.467263">
        <ele>7</ele>
        <time>2020-05-28T19:28:17Z</time>
      </trkpt>
      <trkpt lat="51.211544" lon="4.467417">
        <ele>7</ele>
        <time>2020-05-28T19:28:20Z</time>
      </trkpt>
      <trkpt lat="51.211539" lon="4.46756">
        <ele>7</ele>
        <time>2020-05-28T19:28:23Z</time>
      </trkpt>
      <trkpt lat="51.21153" lon="4.467702">
        <ele>6.9</ele>
        <time>2020-05-28T19:28:26Z</time>
      </trkpt>
      <trkpt lat="51.211518" lon="4.467847">
        <ele>6.8</ele>
        <time>2020-05-28T19:28:29Z</time>
      </trkpt>
      <trkpt lat="51.211518" lon="4.467993">
        <ele>6.7</ele>
        <time>2020-05-28T19:28:32Z</time>
      </trkpt>
      <trkpt lat="51.211514" lon="4.468131">
        <ele>6.7</ele>
        <time>2020-05-28T19:28:35Z</time>
      </trkpt>
      <trkpt lat="51.211507" lon="4.468269">
        <ele>6.7</ele>
        <time>2020-05-28T19:28:38Z</time>
      </trkpt>
      <trkpt lat="51.2115" lon="4.46841">
        <ele>6.7</ele>
        <time>2020-05-28T19:28:41Z</time>
      </trkpt>
      <trkpt lat="51.211489" lon="4.468562">
        <ele>6.8</ele>
        <time>2020-05-28T19:28:44Z</time>
      </trkpt>
      <trkpt lat="51.211461" lon="4.468716">
        <ele>7</ele>
        <time>2020-05-28T19:28:47Z</time>
      </trkpt>
      <trkpt lat="51.211448" lon="4.46887">
        <ele>7.2</ele>
        <time>2020-05-28T19:28:50Z</time>
      </trkpt>
      <trkpt lat="51.211444" lon="4.469034">
        <ele>7.4</ele>
        <time>2020-05-28T19:28:53Z</time>
      </trkpt>
      <trkpt lat="51.211456" lon="4.469197">
        <ele>7.5</ele>
        <time>2020-05-28T19:28:56Z</time>
      </trkpt>
      <trkpt lat="51.211452" lon="4.469365">
        <ele>7.8</ele>
        <time>2020-05-28T19:28:59Z</time>
      </trkpt>
      <trkpt lat="51.211463" lon="4.469522">
        <ele>8.1</ele>
        <time>2020-05-28T19:29:02Z</time>
      </trkpt>
      <trkpt lat="51.211481" lon="4.469678">
        <ele>8.3</ele>
        <time>2020-05-28T19:29:05Z</time>
      </trkpt>
      <trkpt lat="51.211499" lon="4.469825">
        <ele>8.5</ele>
        <time>2020-05-28T19:29:08Z</time>
      </trkpt>
      <trkpt lat="51.211526" lon="4.469966">
        <ele>8.6</ele>
        <time>2020-05-28T19:29:11Z</time>
      </trkpt>
      <trkpt lat="51.211541" lon="4.470114">
        <ele>8.8</ele>
        <time>2020-05-28T19:29:14Z</time>
      </trkpt>
      <trkpt lat="51.211572" lon="4.470267">
        <ele>8.9</ele>
        <time>2020-05-28T19:29:17Z</time>
      </trkpt>
      <trkpt lat="51.211601" lon="4.470416">
        <ele>9</ele>
        <time>2020-05-28T19:29:20Z</time>
      </trkpt>
      <trkpt lat="51.211645" lon="4.470552">
        <ele>9</ele>
        <time>2020-05-28T19:29:23Z</time>
      </trkpt>
      <trkpt lat="51.211682" lon="4.470688">
        <ele>9</ele>
        <time>2020-05-28T19:29:26Z</time>
      </trkpt>
      <trkpt lat="51.211711" lon="4.470827">
        <ele>9</ele>
        <time>2020-05-28T19:29:29Z</time>
      </trkpt>
      <trkpt lat="51.211751" lon="4.470962">
        <ele>8.9</ele>
        <time>2020-05-28T19:29:32Z</time>
      </trkpt>
      <trkpt lat="51.211803" lon="4.471083">
        <ele>8.8</ele>
        <time>2020-05-28T19:29:35Z</time>
      </trkpt>
      <trkpt lat="51.211861" lon="4.47121">
        <ele>8.7</ele>
        <time>2020-05-28T19:29:38Z</time>
      </trkpt>
      <trkpt lat="51.21193" lon="4.471318">
        <ele>8.5</ele>
        <time>2020-05-28T19:29:41Z</time>
      </trkpt>
      <trkpt lat="51.211991" lon="4.471414">
        <ele>8.4</ele>
        <time>2020-05-28T19:29:44Z</time>
      </trkpt>
      <trkpt lat="51.212055" lon="4.471543">
        <ele>8.2</ele>
        <time>2020-05-28T19:29:48Z</time>
      </trkpt>
      <trkpt lat="51.212113" lon="4.471659">
        <ele>8.1</ele>
        <time>2020-05-28T19:29:51Z</time>
      </trkpt>
      <trkpt lat="51.212188" lon="4.471779">
        <ele>8</ele>
        <time>2020-05-28T19:29:54Z</time>
      </trkpt>
      <trkpt lat="51.21226" lon="4.471894">
        <ele>8</ele>
        <time>2020-05-28T19:29:57Z</time>
      </trkpt>
      <trkpt lat="51.21233" lon="4.472018">
        <ele>8</ele>
        <time>2020-05-28T19:30:00Z</time>
      </trkpt>
      <trkpt lat="51.212394" lon="4.47215">
        <ele>7.9</ele>
        <time>2020-05-28T19:30:03Z</time>
      </trkpt>
      <trkpt lat="51.212457" lon="4.472269">
        <ele>7.8</ele>
        <time>2020-05-28T19:30:06Z</time>
      </trkpt>
      <trkpt lat="51.212517" lon="4.47237">
        <ele>7.6</ele>
        <time>2020-05-28T19:30:09Z</time>
      </trkpt>
      <trkpt lat="51.212593" lon="4.472515">
        <ele>7.5</ele>
        <time>2020-05-28T19:30:13Z</time>
      </trkpt>
      <trkpt lat="51.21264" lon="4.472647">
        <ele>7.2</ele>
        <time>2020-05-28T19:30:16Z</time>
      </trkpt>
      <trkpt lat="51.212682" lon="4.472785">
        <ele>6.9</ele>
        <time>2020-05-28T19:30:19Z</time>
      </trkpt>
      <trkpt lat="51.21272" lon="4.472925">
        <ele>6.6</ele>
        <time>2020-05-28T19:30:22Z</time>
      </trkpt>
      <trkpt lat="51.212761" lon="4.473052">
        <ele>6.4</ele>
        <time>2020-05-28T19:30:25Z</time>
      </trkpt>
      <trkpt lat="51.212809" lon="4.473171">
        <ele>6.1</ele>
        <time>2020-05-28T19:30:28Z</time>
      </trkpt>
      <trkpt lat="51.212863" lon="4.473312">
        <ele>5.9</ele>
        <time>2020-05-28T19:30:32Z</time>
      </trkpt>
      <trkpt lat="51.212916" lon="4.473417">
        <ele>5.7</ele>
        <time>2020-05-28T19:30:35Z</time>
      </trkpt>
      <trkpt lat="51.212953" lon="4.473546">
        <ele>5.6</ele>
        <time>2020-05-28T19:30:39Z</time>
      </trkpt>
      <trkpt lat="51.213035" lon="4.473586">
        <ele>5.6</ele>
        <time>2020-05-28T19:32:26Z</time>
      </trkpt>
      <trkpt lat="51.213107" lon="4.473714">
        <ele>5.7</ele>
        <time>2020-05-28T19:32:30Z</time>
      </trkpt>
      <trkpt lat="51.213146" lon="4.473869">
        <ele>5.8</ele>
        <time>2020-05-28T19:32:33Z</time>
      </trkpt>
      <trkpt lat="51.213187" lon="4.474053">
        <ele>6.1</ele>
        <time>2020-05-28T19:32:36Z</time>
      </trkpt>
      <trkpt lat="51.213216" lon="4.47418">
        <ele>6.4</ele>
        <time>2020-05-28T19:32:38Z</time>
      </trkpt>
      <trkpt lat="51.213299" lon="4.474317">
        <ele>6.6</ele>
        <time>2020-05-28T19:32:41Z</time>
      </trkpt>
      <trkpt lat="51.213316" lon="4.474479">
        <ele>7</ele>
        <time>2020-05-28T19:32:44Z</time>
      </trkpt>
      <trkpt lat="51.213343" lon="4.474651">
        <ele>7.3</ele>
        <time>2020-05-28T19:32:47Z</time>
      </trkpt>
      <trkpt lat="51.213367" lon="4.474817">
        <ele>7.4</ele>
        <time>2020-05-28T19:32:50Z</time>
      </trkpt>
      <trkpt lat="51.213382" lon="4.474976">
        <ele>7.5</ele>
        <time>2020-05-28T19:32:53Z</time>
      </trkpt>
      <trkpt lat="51.213418" lon="4.475117">
        <ele>7.5</ele>
        <time>2020-05-28T19:32:56Z</time>
      </trkpt>
      <trkpt lat="51.213464" lon="4.475254">
        <ele>7.5</ele>
        <time>2020-05-28T19:32:59Z</time>
      </trkpt>
      <trkpt lat="51.213466" lon="4.475384">
        <ele>7.5</ele>
        <time>2020-05-28T19:33:02Z</time>
      </trkpt>
      <trkpt lat="51.213461" lon="4.475519">
        <ele>7.6</ele>
        <time>2020-05-28T19:33:05Z</time>
      </trkpt>
      <trkpt lat="51.213459" lon="4.475665">
        <ele>7.6</ele>
        <time>2020-05-28T19:33:08Z</time>
      </trkpt>
      <trkpt lat="51.213477" lon="4.475823">
        <ele>7.7</ele>
        <time>2020-05-28T19:33:11Z</time>
      </trkpt>
      <trkpt lat="51.213495" lon="4.475986">
        <ele>7.9</ele>
        <time>2020-05-28T19:33:14Z</time>
      </trkpt>
      <trkpt lat="51.213521" lon="4.476145">
        <ele>8.1</ele>
        <time>2020-05-28T19:33:17Z</time>
      </trkpt>
      <trkpt lat="51.213557" lon="4.476309">
        <ele>8.5</ele>
        <time>2020-05-28T19:33:20Z</time>
      </trkpt>
      <trkpt lat="51.213587" lon="4.476469">
        <ele>9</ele>
        <time>2020-05-28T19:33:23Z</time>
      </trkpt>
      <trkpt lat="51.213617" lon="4.476629">
        <ele>9.5</ele>
        <time>2020-05-28T19:33:26Z</time>
      </trkpt>
      <trkpt lat="51.213638" lon="4.476798">
        <ele>10.2</ele>
        <time>2020-05-28T19:33:29Z</time>
      </trkpt>
      <trkpt lat="51.213669" lon="4.476963">
        <ele>10.8</ele>
        <time>2020-05-28T19:33:32Z</time>
      </trkpt>
      <trkpt lat="51.213697" lon="4.477113">
        <ele>11.4</ele>
        <time>2020-05-28T19:33:35Z</time>
      </trkpt>
      <trkpt lat="51.213747" lon="4.477249">
        <ele>11.8</ele>
        <time>2020-05-28T19:33:38Z</time>
      </trkpt>
      <trkpt lat="51.213822" lon="4.477397">
        <ele>12.2</ele>
        <time>2020-05-28T19:33:41Z</time>
      </trkpt>
      <trkpt lat="51.21389" lon="4.477492">
        <ele>12.3</ele>
        <time>2020-05-28T19:33:43Z</time>
      </trkpt>
      <trkpt lat="51.213957" lon="4.477582">
        <ele>12.1</ele>
        <time>2020-05-28T19:33:45Z</time>
      </trkpt>
      <trkpt lat="51.214024" lon="4.477717">
        <ele>11.7</ele>
        <time>2020-05-28T19:33:48Z</time>
      </trkpt>
      <trkpt lat="51.214099" lon="4.477818">
        <ele>11.2</ele>
        <time>2020-05-28T19:33:51Z</time>
      </trkpt>
      <trkpt lat="51.21417" lon="4.477897">
        <ele>10.5</ele>
        <time>2020-05-28T19:33:54Z</time>
      </trkpt>
      <trkpt lat="51.214253" lon="4.477993">
        <ele>9.6</ele>
        <time>2020-05-28T19:33:57Z</time>
      </trkpt>
      <trkpt lat="51.214329" lon="4.478102">
        <ele>8.7</ele>
        <time>2020-05-28T19:34:00Z</time>
      </trkpt>
      <trkpt lat="51.214416" lon="4.478211">
        <ele>7.7</ele>
        <time>2020-05-28T19:34:03Z</time>
      </trkpt>
      <trkpt lat="51.214502" lon="4.478315">
        <ele>6.8</ele>
        <time>2020-05-28T19:34:06Z</time>
      </trkpt>
      <trkpt lat="51.214602" lon="4.478413">
        <ele>5.9</ele>
        <time>2020-05-28T19:34:09Z</time>
      </trkpt>
      <trkpt lat="51.214705" lon="4.478503">
        <ele>5.1</ele>
        <time>2020-05-28T19:34:12Z</time>
      </trkpt>
      <trkpt lat="51.214782" lon="4.478562">
        <ele>4.5</ele>
        <time>2020-05-28T19:34:14Z</time>
      </trkpt>
      <trkpt lat="51.214855" lon="4.478627">
        <ele>4.3</ele>
        <time>2020-05-28T19:34:16Z</time>
      </trkpt>
      <trkpt lat="51.214966" lon="4.478735">
        <ele>4.1</ele>
        <time>2020-05-28T19:34:19Z</time>
      </trkpt>
      <trkpt lat="51.215491" lon="4.478754">
        <ele>4.1</ele>
        <time>2020-05-28T19:34:33Z</time>
      </trkpt>
      <trkpt lat="51.21559" lon="4.478677">
        <ele>4.2</ele>
        <time>2020-05-28T19:34:35Z</time>
      </trkpt>
      <trkpt lat="51.215664" lon="4.478546">
        <ele>4.4</ele>
        <time>2020-05-28T19:34:38Z</time>
      </trkpt>
      <trkpt lat="51.215723" lon="4.478424">
        <ele>4.5</ele>
        <time>2020-05-28T19:34:41Z</time>
      </trkpt>
      <trkpt lat="51.215778" lon="4.478304">
        <ele>4.7</ele>
        <time>2020-05-28T19:34:44Z</time>
      </trkpt>
      <trkpt lat="51.21581" lon="4.478138">
        <ele>4.9</ele>
        <time>2020-05-28T19:34:47Z</time>
      </trkpt>
      <trkpt lat="51.215797" lon="4.478009">
        <ele>5.1</ele>
        <time>2020-05-28T19:34:49Z</time>
      </trkpt>
      <trkpt lat="51.215775" lon="4.477822">
        <ele>5.3</ele>
        <time>2020-05-28T19:34:52Z</time>
      </trkpt>
      <trkpt lat="51.215777" lon="4.477692">
        <ele>5.4</ele>
        <time>2020-05-28T19:34:54Z</time>
      </trkpt>
      <trkpt lat="51.21581" lon="4.477511">
        <ele>5.4</ele>
        <time>2020-05-28T19:34:57Z</time>
      </trkpt>
      <trkpt lat="51.215841" lon="4.47735">
        <ele>5.3</ele>
        <time>2020-05-28T19:35:00Z</time>
      </trkpt>
      <trkpt lat="51.215849" lon="4.477202">
        <ele>5</ele>
        <time>2020-05-28T19:35:03Z</time>
      </trkpt>
      <trkpt lat="51.215856" lon="4.477033">
        <ele>4.7</ele>
        <time>2020-05-28T19:35:07Z</time>
      </trkpt>
      <trkpt lat="51.215858" lon="4.476899">
        <ele>4.5</ele>
        <time>2020-05-28T19:35:10Z</time>
      </trkpt>
      <trkpt lat="51.215875" lon="4.47675">
        <ele>4.1</ele>
        <time>2020-05-28T19:35:13Z</time>
      </trkpt>
      <trkpt lat="51.215916" lon="4.476604">
        <ele>3.8</ele>
        <time>2020-05-28T19:35:16Z</time>
      </trkpt>
      <trkpt lat="51.215963" lon="4.476455">
        <ele>3.6</ele>
        <time>2020-05-28T19:35:19Z</time>
      </trkpt>
      <trkpt lat="51.216009" lon="4.476317">
        <ele>3.5</ele>
        <time>2020-05-28T19:35:22Z</time>
      </trkpt>
      <trkpt lat="51.216033" lon="4.476168">
        <ele>3.4</ele>
        <time>2020-05-28T19:35:25Z</time>
      </trkpt>
      <trkpt lat="51.216042" lon="4.476019">
        <ele>3.4</ele>
        <time>2020-05-28T19:35:28Z</time>
      </trkpt>
      <trkpt lat="51.216025" lon="4.475872">
        <ele>3.4</ele>
        <time>2020-05-28T19:35:31Z</time>
      </trkpt>
      <trkpt lat="51.215957" lon="4.475733">
        <ele>3.5</ele>
        <time>2020-05-28T19:35:34Z</time>
      </trkpt>
      <trkpt lat="51.215865" lon="4.475611">
        <ele>3.6</ele>
        <time>2020-05-28T19:35:37Z</time>
      </trkpt>
      <trkpt lat="51.21578" lon="4.475503">
        <ele>3.8</ele>
        <time>2020-05-28T19:35:40Z</time>
      </trkpt>
      <trkpt lat="51.215741" lon="4.475312">
        <ele>4.1</ele>
        <time>2020-05-28T19:35:44Z</time>
      </trkpt>
      <trkpt lat="51.215712" lon="4.475093">
        <ele>4.5</ele>
        <time>2020-05-28T19:35:49Z</time>
      </trkpt>
      <trkpt lat="51.215699" lon="4.474949">
        <ele>4.8</ele>
        <time>2020-05-28T19:35:51Z</time>
      </trkpt>
      <trkpt lat="51.215696" lon="4.474808">
        <ele>5.2</ele>
        <time>2020-05-28T19:35:54Z</time>
      </trkpt>
      <trkpt lat="51.215697" lon="4.474662">
        <ele>5.5</ele>
        <time>2020-05-28T19:35:57Z</time>
      </trkpt>
      <trkpt lat="51.215694" lon="4.47452">
        <ele>5.8</ele>
        <time>2020-05-28T19:36:00Z</time>
      </trkpt>
      <trkpt lat="51.21569" lon="4.474369">
        <ele>6</ele>
        <time>2020-05-28T19:36:03Z</time>
      </trkpt>
      <trkpt lat="51.215686" lon="4.474225">
        <ele>6.1</ele>
        <time>2020-05-28T19:36:06Z</time>
      </trkpt>
      <trkpt lat="51.215684" lon="4.474055">
        <ele>6.2</ele>
        <time>2020-05-28T19:36:09Z</time>
      </trkpt>
      <trkpt lat="51.215673" lon="4.47387">
        <ele>6.4</ele>
        <time>2020-05-28T19:36:12Z</time>
      </trkpt>
      <trkpt lat="51.215665" lon="4.473741">
        <ele>6.6</ele>
        <time>2020-05-28T19:36:14Z</time>
      </trkpt>
    </trkseg>
  </trk>
</gpx>